<?xml version="1.0" encoding="UTF-8" standalone="no" ?>
<gpx xmlns="http://www.topografix.com/GPX/1/1" xmlns:xsi="http://www.w3.org/2001/XMLSchema-instance" xsi:schemaLocation="http://www.topografix.com/GPX/1/1 http://www.topografix.com/GPX/1/1/gpx.xsd" version="1.1" creator="VisuGPX - https://www.visugpx.com">
  <metadata>
    <name>Sommet de BANNE 1643m  depuis le col de Cabre</name>
    <desc><![CDATA[Itinéraire classique du Sommet de Banne 1643m depuis le col de Cabre. Ce col est en limite des Hautes-Alpes et de la Drôme , axe Gap-Valence.
L'itinéraire suivi pour y accéder est un itinéraire agréable en forêt. 
Dans le cadre de cette trace, nous feront une boucle descendant vers le nord-est, puis revenant vers l'ouest où nous descendrons vers le col de Banillon.
Là, nous reprendrons une piste qui nous ramènera  vers le col de Valdrôme, puis celui de Cabre.

[url=https://bd-rando.blogspot.com/2021/08/sommet-de-banne-depuis-le-col-de-cabre.html]voir rando[/url]]]></desc>
  </metadata>
  <trk>
    <name><![CDATA[CABRES BANNE  06:24]]></name>
    <trkseg>
      <trkpt lat="44.54952" lon="5.59857">
        <ele>1187.54</ele>
        <time>2021-08-27T06:54:37Z</time>
      </trkpt>
      <trkpt lat="44.54952" lon="5.59857">
        <ele>1187.54</ele>
        <time>2021-08-27T06:54:38Z</time>
      </trkpt>
      <trkpt lat="44.54951" lon="5.59857">
        <ele>1188.84</ele>
        <time>2021-08-27T06:54:42Z</time>
      </trkpt>
      <trkpt lat="44.5495" lon="5.59853">
        <ele>1188.59</ele>
        <time>2021-08-27T06:54:48Z</time>
      </trkpt>
      <trkpt lat="44.5495" lon="5.59844">
        <ele>1188.94</ele>
        <time>2021-08-27T06:54:55Z</time>
      </trkpt>
      <trkpt lat="44.54947" lon="5.59824">
        <ele>1188.44</ele>
        <time>2021-08-27T06:55:11Z</time>
      </trkpt>
      <trkpt lat="44.54947" lon="5.59818">
        <ele>1188.76</ele>
        <time>2021-08-27T06:55:17Z</time>
      </trkpt>
      <trkpt lat="44.54945" lon="5.59808">
        <ele>1188.87</ele>
        <time>2021-08-27T06:55:35Z</time>
      </trkpt>
      <trkpt lat="44.5494" lon="5.59806">
        <ele>1188.33</ele>
        <time>2021-08-27T06:55:40Z</time>
      </trkpt>
      <trkpt lat="44.54921" lon="5.598">
        <ele>1187.19</ele>
        <time>2021-08-27T06:55:56Z</time>
      </trkpt>
      <trkpt lat="44.54913" lon="5.598">
        <ele>1187.29</ele>
        <time>2021-08-27T06:56:04Z</time>
      </trkpt>
      <trkpt lat="44.54907" lon="5.598">
        <ele>1186.79</ele>
        <time>2021-08-27T06:56:11Z</time>
      </trkpt>
      <trkpt lat="44.54902" lon="5.59809">
        <ele>1186.22</ele>
        <time>2021-08-27T06:56:18Z</time>
      </trkpt>
      <trkpt lat="44.54889" lon="5.59817">
        <ele>1185.52</ele>
        <time>2021-08-27T06:56:33Z</time>
      </trkpt>
      <trkpt lat="44.5487" lon="5.59829">
        <ele>1185.72</ele>
        <time>2021-08-27T06:56:55Z</time>
      </trkpt>
      <trkpt lat="44.54858" lon="5.59826">
        <ele>1186.85</ele>
        <time>2021-08-27T06:57:15Z</time>
      </trkpt>
      <trkpt lat="44.54846" lon="5.59841">
        <ele>1189.53</ele>
        <time>2021-08-27T06:57:35Z</time>
      </trkpt>
      <trkpt lat="44.54833" lon="5.59841">
        <ele>1192.57</ele>
        <time>2021-08-27T06:57:54Z</time>
      </trkpt>
      <trkpt lat="44.54824" lon="5.59843">
        <ele>1195.58</ele>
        <time>2021-08-27T06:58:11Z</time>
      </trkpt>
      <trkpt lat="44.54814" lon="5.59846">
        <ele>1198.62</ele>
        <time>2021-08-27T06:58:29Z</time>
      </trkpt>
      <trkpt lat="44.54808" lon="5.59848">
        <ele>1201.64</ele>
        <time>2021-08-27T06:58:45Z</time>
      </trkpt>
      <trkpt lat="44.548" lon="5.5985">
        <ele>1204.77</ele>
        <time>2021-08-27T06:59:04Z</time>
      </trkpt>
      <trkpt lat="44.54793" lon="5.59847">
        <ele>1207.86</ele>
        <time>2021-08-27T06:59:21Z</time>
      </trkpt>
      <trkpt lat="44.54787" lon="5.59843">
        <ele>1211.25</ele>
        <time>2021-08-27T06:59:38Z</time>
      </trkpt>
      <trkpt lat="44.54786" lon="5.59843">
        <ele>1212.14</ele>
        <time>2021-08-27T06:59:55Z</time>
      </trkpt>
      <trkpt lat="44.54777" lon="5.59844">
        <ele>1213.92</ele>
        <time>2021-08-27T07:00:11Z</time>
      </trkpt>
      <trkpt lat="44.54781" lon="5.59847">
        <ele>1213.48</ele>
        <time>2021-08-27T07:00:25Z</time>
      </trkpt>
      <trkpt lat="44.54771" lon="5.59844">
        <ele>1214.77</ele>
        <time>2021-08-27T07:00:43Z</time>
      </trkpt>
      <trkpt lat="44.54761" lon="5.59841">
        <ele>1217.95</ele>
        <time>2021-08-27T07:01:02Z</time>
      </trkpt>
      <trkpt lat="44.54753" lon="5.59842">
        <ele>1220.98</ele>
        <time>2021-08-27T07:01:21Z</time>
      </trkpt>
      <trkpt lat="44.54743" lon="5.59837">
        <ele>1224.03</ele>
        <time>2021-08-27T07:01:42Z</time>
      </trkpt>
      <trkpt lat="44.54737" lon="5.59826">
        <ele>1226.45</ele>
        <time>2021-08-27T07:02:03Z</time>
      </trkpt>
      <trkpt lat="44.54729" lon="5.59817">
        <ele>1229.45</ele>
        <time>2021-08-27T07:02:23Z</time>
      </trkpt>
      <trkpt lat="44.54719" lon="5.59814">
        <ele>1232.37</ele>
        <time>2021-08-27T07:02:43Z</time>
      </trkpt>
      <trkpt lat="44.54713" lon="5.59821">
        <ele>1235.01</ele>
        <time>2021-08-27T07:03:02Z</time>
      </trkpt>
      <trkpt lat="44.54705" lon="5.59831">
        <ele>1237.29</ele>
        <time>2021-08-27T07:03:22Z</time>
      </trkpt>
      <trkpt lat="44.54693" lon="5.59841">
        <ele>1238.9</ele>
        <time>2021-08-27T07:03:45Z</time>
      </trkpt>
      <trkpt lat="44.54683" lon="5.59854">
        <ele>1241.8</ele>
        <time>2021-08-27T07:04:06Z</time>
      </trkpt>
      <trkpt lat="44.54673" lon="5.59868">
        <ele>1244.11</ele>
        <time>2021-08-27T07:04:29Z</time>
      </trkpt>
      <trkpt lat="44.54661" lon="5.59876">
        <ele>1246.13</ele>
        <time>2021-08-27T07:04:50Z</time>
      </trkpt>
      <trkpt lat="44.54646" lon="5.59884">
        <ele>1248.89</ele>
        <time>2021-08-27T07:05:17Z</time>
      </trkpt>
      <trkpt lat="44.54634" lon="5.59882">
        <ele>1251.5</ele>
        <time>2021-08-27T07:05:40Z</time>
      </trkpt>
      <trkpt lat="44.54618" lon="5.59885">
        <ele>1254.22</ele>
        <time>2021-08-27T07:06:03Z</time>
      </trkpt>
      <trkpt lat="44.54609" lon="5.59891">
        <ele>1256.43</ele>
        <time>2021-08-27T07:06:22Z</time>
      </trkpt>
      <trkpt lat="44.54598" lon="5.59894">
        <ele>1259.51</ele>
        <time>2021-08-27T07:06:44Z</time>
      </trkpt>
      <trkpt lat="44.54586" lon="5.59899">
        <ele>1262.68</ele>
        <time>2021-08-27T07:07:07Z</time>
      </trkpt>
      <trkpt lat="44.54574" lon="5.59906">
        <ele>1265.7</ele>
        <time>2021-08-27T07:07:26Z</time>
      </trkpt>
      <trkpt lat="44.54562" lon="5.59916">
        <ele>1266.51</ele>
        <time>2021-08-27T07:07:46Z</time>
      </trkpt>
      <trkpt lat="44.54548" lon="5.59932">
        <ele>1266.15</ele>
        <time>2021-08-27T07:08:09Z</time>
      </trkpt>
      <trkpt lat="44.54529" lon="5.59953">
        <ele>1265.06</ele>
        <time>2021-08-27T07:08:31Z</time>
      </trkpt>
      <trkpt lat="44.54516" lon="5.5996">
        <ele>1266.4</ele>
        <time>2021-08-27T07:08:48Z</time>
      </trkpt>
      <trkpt lat="44.54501" lon="5.59973">
        <ele>1267</ele>
        <time>2021-08-27T07:09:06Z</time>
      </trkpt>
      <trkpt lat="44.54491" lon="5.59982">
        <ele>1265.87</ele>
        <time>2021-08-27T07:09:23Z</time>
      </trkpt>
      <trkpt lat="44.54476" lon="5.59996">
        <ele>1266.08</ele>
        <time>2021-08-27T07:09:43Z</time>
      </trkpt>
      <trkpt lat="44.54461" lon="5.60022">
        <ele>1266.98</ele>
        <time>2021-08-27T07:10:08Z</time>
      </trkpt>
      <trkpt lat="44.54451" lon="5.6005">
        <ele>1266.99</ele>
        <time>2021-08-27T07:10:31Z</time>
      </trkpt>
      <trkpt lat="44.54443" lon="5.60071">
        <ele>1268.45</ele>
        <time>2021-08-27T07:10:55Z</time>
      </trkpt>
      <trkpt lat="44.54439" lon="5.60095">
        <ele>1270.57</ele>
        <time>2021-08-27T07:11:14Z</time>
      </trkpt>
      <trkpt lat="44.54432" lon="5.60114">
        <ele>1272</ele>
        <time>2021-08-27T07:11:33Z</time>
      </trkpt>
      <trkpt lat="44.54426" lon="5.60129">
        <ele>1274.29</ele>
        <time>2021-08-27T07:11:52Z</time>
      </trkpt>
      <trkpt lat="44.54417" lon="5.60146">
        <ele>1276.04</ele>
        <time>2021-08-27T07:12:12Z</time>
      </trkpt>
      <trkpt lat="44.54403" lon="5.60162">
        <ele>1275.99</ele>
        <time>2021-08-27T07:12:31Z</time>
      </trkpt>
      <trkpt lat="44.54386" lon="5.60173">
        <ele>1275.79</ele>
        <time>2021-08-27T07:12:50Z</time>
      </trkpt>
      <trkpt lat="44.54385" lon="5.60173">
        <ele>1275.57</ele>
        <time>2021-08-27T07:12:51Z</time>
      </trkpt>
      <trkpt lat="44.54371" lon="5.60191">
        <ele>1275.83</ele>
        <time>2021-08-27T07:13:10Z</time>
      </trkpt>
      <trkpt lat="44.54355" lon="5.60201">
        <ele>1276.41</ele>
        <time>2021-08-27T07:13:28Z</time>
      </trkpt>
      <trkpt lat="44.54338" lon="5.60211">
        <ele>1277.15</ele>
        <time>2021-08-27T07:13:46Z</time>
      </trkpt>
      <trkpt lat="44.54324" lon="5.60218">
        <ele>1278.26</ele>
        <time>2021-08-27T07:14:04Z</time>
      </trkpt>
      <trkpt lat="44.54307" lon="5.60223">
        <ele>1280.36</ele>
        <time>2021-08-27T07:14:25Z</time>
      </trkpt>
      <trkpt lat="44.54292" lon="5.60236">
        <ele>1282.67</ele>
        <time>2021-08-27T07:14:45Z</time>
      </trkpt>
      <trkpt lat="44.54274" lon="5.60241">
        <ele>1284.61</ele>
        <time>2021-08-27T07:15:06Z</time>
      </trkpt>
      <trkpt lat="44.54255" lon="5.60253">
        <ele>1287.07</ele>
        <time>2021-08-27T07:15:28Z</time>
      </trkpt>
      <trkpt lat="44.54246" lon="5.60256">
        <ele>1288.34</ele>
        <time>2021-08-27T07:15:40Z</time>
      </trkpt>
      <trkpt lat="44.54231" lon="5.60256">
        <ele>1291.02</ele>
        <time>2021-08-27T07:16:03Z</time>
      </trkpt>
      <trkpt lat="44.54225" lon="5.60255">
        <ele>1291.32</ele>
        <time>2021-08-27T07:16:09Z</time>
      </trkpt>
      <trkpt lat="44.54218" lon="5.60259">
        <ele>1292.8</ele>
        <time>2021-08-27T07:16:23Z</time>
      </trkpt>
      <trkpt lat="44.54206" lon="5.60265">
        <ele>1293.91</ele>
        <time>2021-08-27T07:16:41Z</time>
      </trkpt>
      <trkpt lat="44.54198" lon="5.60271">
        <ele>1294.61</ele>
        <time>2021-08-27T07:16:49Z</time>
      </trkpt>
      <trkpt lat="44.54189" lon="5.60285">
        <ele>1295.97</ele>
        <time>2021-08-27T07:17:04Z</time>
      </trkpt>
      <trkpt lat="44.54184" lon="5.60286">
        <ele>1296.68</ele>
        <time>2021-08-27T07:17:21Z</time>
      </trkpt>
      <trkpt lat="44.54183" lon="5.60286">
        <ele>1297.16</ele>
        <time>2021-08-27T07:17:22Z</time>
      </trkpt>
      <trkpt lat="44.54181" lon="5.60299">
        <ele>1297.69</ele>
        <time>2021-08-27T07:17:38Z</time>
      </trkpt>
      <trkpt lat="44.54176" lon="5.60301">
        <ele>1298.75</ele>
        <time>2021-08-27T07:17:48Z</time>
      </trkpt>
      <trkpt lat="44.54165" lon="5.60316">
        <ele>1298.84</ele>
        <time>2021-08-27T07:18:05Z</time>
      </trkpt>
      <trkpt lat="44.54159" lon="5.60314">
        <ele>1298.48</ele>
        <time>2021-08-27T07:18:17Z</time>
      </trkpt>
      <trkpt lat="44.54152" lon="5.60323">
        <ele>1298.36</ele>
        <time>2021-08-27T07:18:20Z</time>
      </trkpt>
      <trkpt lat="44.54147" lon="5.60336">
        <ele>1297.9</ele>
        <time>2021-08-27T07:18:38Z</time>
      </trkpt>
      <trkpt lat="44.54143" lon="5.60359">
        <ele>1300.08</ele>
        <time>2021-08-27T07:18:54Z</time>
      </trkpt>
      <trkpt lat="44.54135" lon="5.60371">
        <ele>1300.48</ele>
        <time>2021-08-27T07:19:17Z</time>
      </trkpt>
      <trkpt lat="44.54132" lon="5.60387">
        <ele>1301.33</ele>
        <time>2021-08-27T07:19:34Z</time>
      </trkpt>
      <trkpt lat="44.54125" lon="5.60404">
        <ele>1303.1</ele>
        <time>2021-08-27T07:19:55Z</time>
      </trkpt>
      <trkpt lat="44.54121" lon="5.60419">
        <ele>1303.88</ele>
        <time>2021-08-27T07:20:16Z</time>
      </trkpt>
      <trkpt lat="44.54116" lon="5.60436">
        <ele>1304.73</ele>
        <time>2021-08-27T07:20:33Z</time>
      </trkpt>
      <trkpt lat="44.54106" lon="5.60441">
        <ele>1305.66</ele>
        <time>2021-08-27T07:20:48Z</time>
      </trkpt>
      <trkpt lat="44.54096" lon="5.60457">
        <ele>1307.22</ele>
        <time>2021-08-27T07:21:10Z</time>
      </trkpt>
      <trkpt lat="44.54086" lon="5.60469">
        <ele>1308.78</ele>
        <time>2021-08-27T07:21:26Z</time>
      </trkpt>
      <trkpt lat="44.54071" lon="5.60477">
        <ele>1311.45</ele>
        <time>2021-08-27T07:21:49Z</time>
      </trkpt>
      <trkpt lat="44.54061" lon="5.60482">
        <ele>1313.22</ele>
        <time>2021-08-27T07:22:08Z</time>
      </trkpt>
      <trkpt lat="44.54048" lon="5.60489">
        <ele>1315.25</ele>
        <time>2021-08-27T07:22:28Z</time>
      </trkpt>
      <trkpt lat="44.54036" lon="5.60496">
        <ele>1317.54</ele>
        <time>2021-08-27T07:22:52Z</time>
      </trkpt>
      <trkpt lat="44.54018" lon="5.6051">
        <ele>1319.34</ele>
        <time>2021-08-27T07:23:06Z</time>
      </trkpt>
      <trkpt lat="44.54009" lon="5.6052">
        <ele>1321.01</ele>
        <time>2021-08-27T07:23:28Z</time>
      </trkpt>
      <trkpt lat="44.53995" lon="5.60535">
        <ele>1323.38</ele>
        <time>2021-08-27T07:23:51Z</time>
      </trkpt>
      <trkpt lat="44.53986" lon="5.60554">
        <ele>1325.35</ele>
        <time>2021-08-27T07:24:13Z</time>
      </trkpt>
      <trkpt lat="44.53982" lon="5.60571">
        <ele>1327.05</ele>
        <time>2021-08-27T07:24:34Z</time>
      </trkpt>
      <trkpt lat="44.53971" lon="5.60589">
        <ele>1329.12</ele>
        <time>2021-08-27T07:24:56Z</time>
      </trkpt>
      <trkpt lat="44.5396" lon="5.60608">
        <ele>1330.86</ele>
        <time>2021-08-27T07:25:18Z</time>
      </trkpt>
      <trkpt lat="44.53948" lon="5.60629">
        <ele>1332.72</ele>
        <time>2021-08-27T07:25:38Z</time>
      </trkpt>
      <trkpt lat="44.53935" lon="5.60653">
        <ele>1334.39</ele>
        <time>2021-08-27T07:25:58Z</time>
      </trkpt>
      <trkpt lat="44.53922" lon="5.60665">
        <ele>1336.7</ele>
        <time>2021-08-27T07:26:20Z</time>
      </trkpt>
      <trkpt lat="44.53911" lon="5.60681">
        <ele>1338.79</ele>
        <time>2021-08-27T07:26:42Z</time>
      </trkpt>
      <trkpt lat="44.53899" lon="5.60706">
        <ele>1340.58</ele>
        <time>2021-08-27T07:26:57Z</time>
      </trkpt>
      <trkpt lat="44.53888" lon="5.60727">
        <ele>1342.17</ele>
        <time>2021-08-27T07:27:12Z</time>
      </trkpt>
      <trkpt lat="44.5388" lon="5.60738">
        <ele>1342.7</ele>
        <time>2021-08-27T07:27:24Z</time>
      </trkpt>
      <trkpt lat="44.53872" lon="5.6074">
        <ele>1344.11</ele>
        <time>2021-08-27T07:27:39Z</time>
      </trkpt>
      <trkpt lat="44.53863" lon="5.60749">
        <ele>1344.3</ele>
        <time>2021-08-27T07:27:42Z</time>
      </trkpt>
      <trkpt lat="44.53855" lon="5.60765">
        <ele>1346.46</ele>
        <time>2021-08-27T07:28:01Z</time>
      </trkpt>
      <trkpt lat="44.53848" lon="5.60766">
        <ele>1347.71</ele>
        <time>2021-08-27T07:28:14Z</time>
      </trkpt>
      <trkpt lat="44.53845" lon="5.60772">
        <ele>1349.23</ele>
        <time>2021-08-27T07:28:29Z</time>
      </trkpt>
      <trkpt lat="44.53843" lon="5.60776">
        <ele>1350.5</ele>
        <time>2021-08-27T07:28:44Z</time>
      </trkpt>
      <trkpt lat="44.53838" lon="5.60779">
        <ele>1352.12</ele>
        <time>2021-08-27T07:28:58Z</time>
      </trkpt>
      <trkpt lat="44.53843" lon="5.60773">
        <ele>1353.72</ele>
        <time>2021-08-27T07:29:18Z</time>
      </trkpt>
      <trkpt lat="44.53839" lon="5.60778">
        <ele>1356.58</ele>
        <time>2021-08-27T07:29:37Z</time>
      </trkpt>
      <trkpt lat="44.53829" lon="5.60786">
        <ele>1356.09</ele>
        <time>2021-08-27T07:30:01Z</time>
      </trkpt>
      <trkpt lat="44.53821" lon="5.60803">
        <ele>1357.22</ele>
        <time>2021-08-27T07:30:21Z</time>
      </trkpt>
      <trkpt lat="44.53814" lon="5.60819">
        <ele>1358.39</ele>
        <time>2021-08-27T07:30:39Z</time>
      </trkpt>
      <trkpt lat="44.53805" lon="5.60841">
        <ele>1360.56</ele>
        <time>2021-08-27T07:31:01Z</time>
      </trkpt>
      <trkpt lat="44.53793" lon="5.60859">
        <ele>1361.53</ele>
        <time>2021-08-27T07:31:17Z</time>
      </trkpt>
      <trkpt lat="44.53783" lon="5.60875">
        <ele>1363.57</ele>
        <time>2021-08-27T07:31:37Z</time>
      </trkpt>
      <trkpt lat="44.53778" lon="5.60885">
        <ele>1366.65</ele>
        <time>2021-08-27T07:31:58Z</time>
      </trkpt>
      <trkpt lat="44.53774" lon="5.60896">
        <ele>1369.53</ele>
        <time>2021-08-27T07:32:16Z</time>
      </trkpt>
      <trkpt lat="44.53767" lon="5.60913">
        <ele>1372.4</ele>
        <time>2021-08-27T07:32:38Z</time>
      </trkpt>
      <trkpt lat="44.53759" lon="5.60923">
        <ele>1375.48</ele>
        <time>2021-08-27T07:33:03Z</time>
      </trkpt>
      <trkpt lat="44.53758" lon="5.60927">
        <ele>1376.39</ele>
        <time>2021-08-27T07:33:10Z</time>
      </trkpt>
      <trkpt lat="44.53753" lon="5.60948">
        <ele>1379.1</ele>
        <time>2021-08-27T07:33:36Z</time>
      </trkpt>
      <trkpt lat="44.53742" lon="5.60962">
        <ele>1381.7</ele>
        <time>2021-08-27T07:34:01Z</time>
      </trkpt>
      <trkpt lat="44.53739" lon="5.60974">
        <ele>1382.96</ele>
        <time>2021-08-27T07:34:23Z</time>
      </trkpt>
      <trkpt lat="44.53726" lon="5.60988">
        <ele>1385</ele>
        <time>2021-08-27T07:34:42Z</time>
      </trkpt>
      <trkpt lat="44.53715" lon="5.61004">
        <ele>1386.47</ele>
        <time>2021-08-27T07:35:01Z</time>
      </trkpt>
      <trkpt lat="44.53707" lon="5.6101">
        <ele>1387.78</ele>
        <time>2021-08-27T07:35:19Z</time>
      </trkpt>
      <trkpt lat="44.53701" lon="5.61016">
        <ele>1390.39</ele>
        <time>2021-08-27T07:35:34Z</time>
      </trkpt>
      <trkpt lat="44.53699" lon="5.61023">
        <ele>1392.98</ele>
        <time>2021-08-27T07:35:49Z</time>
      </trkpt>
      <trkpt lat="44.53697" lon="5.61026">
        <ele>1393.62</ele>
        <time>2021-08-27T07:35:52Z</time>
      </trkpt>
      <trkpt lat="44.53688" lon="5.61046">
        <ele>1396.17</ele>
        <time>2021-08-27T07:36:16Z</time>
      </trkpt>
      <trkpt lat="44.53678" lon="5.61059">
        <ele>1398.3</ele>
        <time>2021-08-27T07:36:36Z</time>
      </trkpt>
      <trkpt lat="44.53671" lon="5.61073">
        <ele>1400.4</ele>
        <time>2021-08-27T07:36:55Z</time>
      </trkpt>
      <trkpt lat="44.53668" lon="5.61078">
        <ele>1401.31</ele>
        <time>2021-08-27T07:37:03Z</time>
      </trkpt>
      <trkpt lat="44.53663" lon="5.61093">
        <ele>1403.18</ele>
        <time>2021-08-27T07:37:22Z</time>
      </trkpt>
      <trkpt lat="44.53653" lon="5.61109">
        <ele>1405.64</ele>
        <time>2021-08-27T07:37:44Z</time>
      </trkpt>
      <trkpt lat="44.53647" lon="5.61119">
        <ele>1407.03</ele>
        <time>2021-08-27T07:38:02Z</time>
      </trkpt>
      <trkpt lat="44.53645" lon="5.61123">
        <ele>1407.44</ele>
        <time>2021-08-27T07:38:06Z</time>
      </trkpt>
      <trkpt lat="44.5364" lon="5.61135">
        <ele>1409.98</ele>
        <time>2021-08-27T07:38:22Z</time>
      </trkpt>
      <trkpt lat="44.53628" lon="5.61148">
        <ele>1413.36</ele>
        <time>2021-08-27T07:38:43Z</time>
      </trkpt>
      <trkpt lat="44.53621" lon="5.61154">
        <ele>1415.45</ele>
        <time>2021-08-27T07:39:02Z</time>
      </trkpt>
      <trkpt lat="44.53617" lon="5.61161">
        <ele>1418.61</ele>
        <time>2021-08-27T07:39:23Z</time>
      </trkpt>
      <trkpt lat="44.5361" lon="5.61169">
        <ele>1420.34</ele>
        <time>2021-08-27T07:39:43Z</time>
      </trkpt>
      <trkpt lat="44.53605" lon="5.61175">
        <ele>1421.79</ele>
        <time>2021-08-27T07:40:00Z</time>
      </trkpt>
      <trkpt lat="44.53591" lon="5.61194">
        <ele>1424.52</ele>
        <time>2021-08-27T07:40:19Z</time>
      </trkpt>
      <trkpt lat="44.5359" lon="5.61195">
        <ele>1425.47</ele>
        <time>2021-08-27T07:40:24Z</time>
      </trkpt>
      <trkpt lat="44.53586" lon="5.61204">
        <ele>1428.42</ele>
        <time>2021-08-27T07:40:44Z</time>
      </trkpt>
      <trkpt lat="44.53583" lon="5.61219">
        <ele>1431.44</ele>
        <time>2021-08-27T07:41:02Z</time>
      </trkpt>
      <trkpt lat="44.53575" lon="5.61231">
        <ele>1434.51</ele>
        <time>2021-08-27T07:41:24Z</time>
      </trkpt>
      <trkpt lat="44.53571" lon="5.61248">
        <ele>1437.01</ele>
        <time>2021-08-27T07:41:48Z</time>
      </trkpt>
      <trkpt lat="44.53561" lon="5.61253">
        <ele>1439.55</ele>
        <time>2021-08-27T07:42:12Z</time>
      </trkpt>
      <trkpt lat="44.53554" lon="5.6126">
        <ele>1442.57</ele>
        <time>2021-08-27T07:42:35Z</time>
      </trkpt>
      <trkpt lat="44.53547" lon="5.61264">
        <ele>1444.3</ele>
        <time>2021-08-27T07:42:55Z</time>
      </trkpt>
      <trkpt lat="44.53539" lon="5.61269">
        <ele>1445.98</ele>
        <time>2021-08-27T07:43:08Z</time>
      </trkpt>
      <trkpt lat="44.53527" lon="5.61277">
        <ele>1449.18</ele>
        <time>2021-08-27T07:43:29Z</time>
      </trkpt>
      <trkpt lat="44.53518" lon="5.6128">
        <ele>1452.04</ele>
        <time>2021-08-27T07:43:49Z</time>
      </trkpt>
      <trkpt lat="44.53511" lon="5.61285">
        <ele>1452.66</ele>
        <time>2021-08-27T07:44:02Z</time>
      </trkpt>
      <trkpt lat="44.53505" lon="5.6129">
        <ele>1453.62</ele>
        <time>2021-08-27T07:44:20Z</time>
      </trkpt>
      <trkpt lat="44.53501" lon="5.61291">
        <ele>1454.15</ele>
        <time>2021-08-27T07:44:28Z</time>
      </trkpt>
      <trkpt lat="44.53496" lon="5.61298">
        <ele>1455.74</ele>
        <time>2021-08-27T07:44:41Z</time>
      </trkpt>
      <trkpt lat="44.53493" lon="5.61306">
        <ele>1456.7</ele>
        <time>2021-08-27T07:44:49Z</time>
      </trkpt>
      <trkpt lat="44.5349" lon="5.61309">
        <ele>1457.52</ele>
        <time>2021-08-27T07:44:55Z</time>
      </trkpt>
      <trkpt lat="44.53488" lon="5.61311">
        <ele>1458.13</ele>
        <time>2021-08-27T07:44:59Z</time>
      </trkpt>
      <trkpt lat="44.53485" lon="5.61315">
        <ele>1459.02</ele>
        <time>2021-08-27T07:45:06Z</time>
      </trkpt>
      <trkpt lat="44.53481" lon="5.61321">
        <ele>1460.56</ele>
        <time>2021-08-27T07:45:18Z</time>
      </trkpt>
      <trkpt lat="44.53476" lon="5.61326">
        <ele>1462.81</ele>
        <time>2021-08-27T07:45:33Z</time>
      </trkpt>
      <trkpt lat="44.53472" lon="5.61329">
        <ele>1464.41</ele>
        <time>2021-08-27T07:45:46Z</time>
      </trkpt>
      <trkpt lat="44.53471" lon="5.61331">
        <ele>1464.51</ele>
        <time>2021-08-27T07:45:48Z</time>
      </trkpt>
      <trkpt lat="44.53468" lon="5.61336">
        <ele>1465.22</ele>
        <time>2021-08-27T07:45:55Z</time>
      </trkpt>
      <trkpt lat="44.53462" lon="5.61344">
        <ele>1467.38</ele>
        <time>2021-08-27T07:46:12Z</time>
      </trkpt>
      <trkpt lat="44.53457" lon="5.6135">
        <ele>1468.5</ele>
        <time>2021-08-27T07:46:22Z</time>
      </trkpt>
      <trkpt lat="44.53451" lon="5.61355">
        <ele>1470.32</ele>
        <time>2021-08-27T07:46:36Z</time>
      </trkpt>
      <trkpt lat="44.53449" lon="5.61355">
        <ele>1471.82</ele>
        <time>2021-08-27T07:46:51Z</time>
      </trkpt>
      <trkpt lat="44.53445" lon="5.61356">
        <ele>1472.48</ele>
        <time>2021-08-27T07:46:55Z</time>
      </trkpt>
      <trkpt lat="44.53439" lon="5.6136">
        <ele>1475.68</ele>
        <time>2021-08-27T07:47:16Z</time>
      </trkpt>
      <trkpt lat="44.53432" lon="5.61365">
        <ele>1477.94</ele>
        <time>2021-08-27T07:47:34Z</time>
      </trkpt>
      <trkpt lat="44.53428" lon="5.61373">
        <ele>1479.74</ele>
        <time>2021-08-27T07:47:51Z</time>
      </trkpt>
      <trkpt lat="44.53425" lon="5.61379">
        <ele>1482.31</ele>
        <time>2021-08-27T07:48:11Z</time>
      </trkpt>
      <trkpt lat="44.5342" lon="5.6138">
        <ele>1484.48</ele>
        <time>2021-08-27T07:48:30Z</time>
      </trkpt>
      <trkpt lat="44.53416" lon="5.61384">
        <ele>1486.18</ele>
        <time>2021-08-27T07:48:45Z</time>
      </trkpt>
      <trkpt lat="44.5341" lon="5.61387">
        <ele>1488.18</ele>
        <time>2021-08-27T07:49:01Z</time>
      </trkpt>
      <trkpt lat="44.53409" lon="5.61389">
        <ele>1489.14</ele>
        <time>2021-08-27T07:49:07Z</time>
      </trkpt>
      <trkpt lat="44.53411" lon="5.61393">
        <ele>1489.86</ele>
        <time>2021-08-27T07:49:13Z</time>
      </trkpt>
      <trkpt lat="44.53407" lon="5.61395">
        <ele>1492.38</ele>
        <time>2021-08-27T07:49:34Z</time>
      </trkpt>
      <trkpt lat="44.53404" lon="5.61398">
        <ele>1493.24</ele>
        <time>2021-08-27T07:49:42Z</time>
      </trkpt>
      <trkpt lat="44.53393" lon="5.61407">
        <ele>1495.59</ele>
        <time>2021-08-27T07:50:03Z</time>
      </trkpt>
      <trkpt lat="44.53389" lon="5.61405">
        <ele>1496.47</ele>
        <time>2021-08-27T07:50:14Z</time>
      </trkpt>
      <trkpt lat="44.53387" lon="5.61406">
        <ele>1498.1</ele>
        <time>2021-08-27T07:50:29Z</time>
      </trkpt>
      <trkpt lat="44.53382" lon="5.61404">
        <ele>1499.13</ele>
        <time>2021-08-27T07:50:54Z</time>
      </trkpt>
      <trkpt lat="44.53371" lon="5.61414">
        <ele>1500.78</ele>
        <time>2021-08-27T07:51:17Z</time>
      </trkpt>
      <trkpt lat="44.53361" lon="5.61419">
        <ele>1502.28</ele>
        <time>2021-08-27T07:51:38Z</time>
      </trkpt>
      <trkpt lat="44.53356" lon="5.6143">
        <ele>1505.21</ele>
        <time>2021-08-27T07:51:58Z</time>
      </trkpt>
      <trkpt lat="44.53345" lon="5.61437">
        <ele>1507.03</ele>
        <time>2021-08-27T07:52:13Z</time>
      </trkpt>
      <trkpt lat="44.53334" lon="5.61446">
        <ele>1509.08</ele>
        <time>2021-08-27T07:52:35Z</time>
      </trkpt>
      <trkpt lat="44.53324" lon="5.61464">
        <ele>1508.89</ele>
        <time>2021-08-27T07:53:01Z</time>
      </trkpt>
      <trkpt lat="44.53313" lon="5.61478">
        <ele>1508.83</ele>
        <time>2021-08-27T07:53:20Z</time>
      </trkpt>
      <trkpt lat="44.53308" lon="5.61498">
        <ele>1508.33</ele>
        <time>2021-08-27T07:53:41Z</time>
      </trkpt>
      <trkpt lat="44.53305" lon="5.6152">
        <ele>1509.11</ele>
        <time>2021-08-27T07:54:03Z</time>
      </trkpt>
      <trkpt lat="44.53308" lon="5.61543">
        <ele>1511.37</ele>
        <time>2021-08-27T07:54:22Z</time>
      </trkpt>
      <trkpt lat="44.53299" lon="5.61559">
        <ele>1511.23</ele>
        <time>2021-08-27T07:54:46Z</time>
      </trkpt>
      <trkpt lat="44.53297" lon="5.61577">
        <ele>1513.1</ele>
        <time>2021-08-27T07:55:07Z</time>
      </trkpt>
      <trkpt lat="44.53297" lon="5.61594">
        <ele>1515.03</ele>
        <time>2021-08-27T07:55:25Z</time>
      </trkpt>
      <trkpt lat="44.53297" lon="5.61609">
        <ele>1517.29</ele>
        <time>2021-08-27T07:55:44Z</time>
      </trkpt>
      <trkpt lat="44.53301" lon="5.61626">
        <ele>1520.15</ele>
        <time>2021-08-27T07:56:05Z</time>
      </trkpt>
      <trkpt lat="44.53305" lon="5.61636">
        <ele>1522.39</ele>
        <time>2021-08-27T07:56:25Z</time>
      </trkpt>
      <trkpt lat="44.53314" lon="5.61643">
        <ele>1524.96</ele>
        <time>2021-08-27T07:56:46Z</time>
      </trkpt>
      <trkpt lat="44.5332" lon="5.61652">
        <ele>1526.36</ele>
        <time>2021-08-27T07:57:04Z</time>
      </trkpt>
      <trkpt lat="44.53334" lon="5.61653">
        <ele>1527.85</ele>
        <time>2021-08-27T07:57:24Z</time>
      </trkpt>
      <trkpt lat="44.53348" lon="5.61654">
        <ele>1529.49</ele>
        <time>2021-08-27T07:57:47Z</time>
      </trkpt>
      <trkpt lat="44.53361" lon="5.61658">
        <ele>1532.04</ele>
        <time>2021-08-27T07:58:11Z</time>
      </trkpt>
      <trkpt lat="44.53367" lon="5.61665">
        <ele>1534.19</ele>
        <time>2021-08-27T07:58:30Z</time>
      </trkpt>
      <trkpt lat="44.53371" lon="5.61678">
        <ele>1536.93</ele>
        <time>2021-08-27T07:58:53Z</time>
      </trkpt>
      <trkpt lat="44.53376" lon="5.6169">
        <ele>1540.03</ele>
        <time>2021-08-27T07:59:19Z</time>
      </trkpt>
      <trkpt lat="44.53379" lon="5.61696">
        <ele>1543.08</ele>
        <time>2021-08-27T07:59:38Z</time>
      </trkpt>
      <trkpt lat="44.53383" lon="5.61708">
        <ele>1546.09</ele>
        <time>2021-08-27T08:00:02Z</time>
      </trkpt>
      <trkpt lat="44.53389" lon="5.61714">
        <ele>1547.91</ele>
        <time>2021-08-27T08:00:21Z</time>
      </trkpt>
      <trkpt lat="44.53392" lon="5.61722">
        <ele>1551.03</ele>
        <time>2021-08-27T08:00:42Z</time>
      </trkpt>
      <trkpt lat="44.53395" lon="5.61725">
        <ele>1552.95</ele>
        <time>2021-08-27T08:01:01Z</time>
      </trkpt>
      <trkpt lat="44.53399" lon="5.61729">
        <ele>1555.59</ele>
        <time>2021-08-27T08:01:21Z</time>
      </trkpt>
      <trkpt lat="44.53407" lon="5.61732">
        <ele>1558.02</ele>
        <time>2021-08-27T08:01:41Z</time>
      </trkpt>
      <trkpt lat="44.53411" lon="5.61737">
        <ele>1560.22</ele>
        <time>2021-08-27T08:02:03Z</time>
      </trkpt>
      <trkpt lat="44.53411" lon="5.61743">
        <ele>1562.46</ele>
        <time>2021-08-27T08:02:19Z</time>
      </trkpt>
      <trkpt lat="44.5341" lon="5.61745">
        <ele>1562.32</ele>
        <time>2021-08-27T08:02:48Z</time>
      </trkpt>
      <trkpt lat="44.53409" lon="5.61751">
        <ele>1565.45</ele>
        <time>2021-08-27T08:03:06Z</time>
      </trkpt>
      <trkpt lat="44.53407" lon="5.61757">
        <ele>1568.15</ele>
        <time>2021-08-27T08:03:23Z</time>
      </trkpt>
      <trkpt lat="44.53406" lon="5.61763">
        <ele>1570.93</ele>
        <time>2021-08-27T08:03:40Z</time>
      </trkpt>
      <trkpt lat="44.53404" lon="5.61771">
        <ele>1572.66</ele>
        <time>2021-08-27T08:04:00Z</time>
      </trkpt>
      <trkpt lat="44.53405" lon="5.61781">
        <ele>1575.42</ele>
        <time>2021-08-27T08:04:19Z</time>
      </trkpt>
      <trkpt lat="44.5341" lon="5.61788">
        <ele>1578.44</ele>
        <time>2021-08-27T08:04:40Z</time>
      </trkpt>
      <trkpt lat="44.53412" lon="5.61797">
        <ele>1581.14</ele>
        <time>2021-08-27T08:04:59Z</time>
      </trkpt>
      <trkpt lat="44.53411" lon="5.61809">
        <ele>1583.81</ele>
        <time>2021-08-27T08:05:21Z</time>
      </trkpt>
      <trkpt lat="44.53414" lon="5.61821">
        <ele>1585.62</ele>
        <time>2021-08-27T08:05:46Z</time>
      </trkpt>
      <trkpt lat="44.53416" lon="5.61831">
        <ele>1587.7</ele>
        <time>2021-08-27T08:06:04Z</time>
      </trkpt>
      <trkpt lat="44.53416" lon="5.6184">
        <ele>1590.32</ele>
        <time>2021-08-27T08:06:22Z</time>
      </trkpt>
      <trkpt lat="44.53416" lon="5.6185">
        <ele>1593.03</ele>
        <time>2021-08-27T08:06:42Z</time>
      </trkpt>
      <trkpt lat="44.53418" lon="5.61857">
        <ele>1594.52</ele>
        <time>2021-08-27T08:06:58Z</time>
      </trkpt>
      <trkpt lat="44.53417" lon="5.61867">
        <ele>1596.92</ele>
        <time>2021-08-27T08:07:19Z</time>
      </trkpt>
      <trkpt lat="44.53419" lon="5.61879">
        <ele>1598.58</ele>
        <time>2021-08-27T08:07:42Z</time>
      </trkpt>
      <trkpt lat="44.53423" lon="5.61886">
        <ele>1600.99</ele>
        <time>2021-08-27T08:07:59Z</time>
      </trkpt>
      <trkpt lat="44.53424" lon="5.61891">
        <ele>1603.19</ele>
        <time>2021-08-27T08:08:17Z</time>
      </trkpt>
      <trkpt lat="44.53425" lon="5.61897">
        <ele>1604.46</ele>
        <time>2021-08-27T08:08:33Z</time>
      </trkpt>
      <trkpt lat="44.53427" lon="5.61909">
        <ele>1607.22</ele>
        <time>2021-08-27T08:08:54Z</time>
      </trkpt>
      <trkpt lat="44.5343" lon="5.61916">
        <ele>1609.08</ele>
        <time>2021-08-27T08:09:13Z</time>
      </trkpt>
      <trkpt lat="44.53431" lon="5.61926">
        <ele>1610.96</ele>
        <time>2021-08-27T08:09:32Z</time>
      </trkpt>
      <trkpt lat="44.53429" lon="5.61936">
        <ele>1612.43</ele>
        <time>2021-08-27T08:09:49Z</time>
      </trkpt>
      <trkpt lat="44.5343" lon="5.61944">
        <ele>1614.14</ele>
        <time>2021-08-27T08:10:04Z</time>
      </trkpt>
      <trkpt lat="44.53432" lon="5.61958">
        <ele>1617.47</ele>
        <time>2021-08-27T08:10:23Z</time>
      </trkpt>
      <trkpt lat="44.53434" lon="5.61967">
        <ele>1619.27</ele>
        <time>2021-08-27T08:10:40Z</time>
      </trkpt>
      <trkpt lat="44.53433" lon="5.61975">
        <ele>1620.82</ele>
        <time>2021-08-27T08:10:59Z</time>
      </trkpt>
      <trkpt lat="44.53433" lon="5.61989">
        <ele>1623.39</ele>
        <time>2021-08-27T08:11:17Z</time>
      </trkpt>
      <trkpt lat="44.53431" lon="5.62002">
        <ele>1624.98</ele>
        <time>2021-08-27T08:11:32Z</time>
      </trkpt>
      <trkpt lat="44.53432" lon="5.62008">
        <ele>1625.58</ele>
        <time>2021-08-27T08:11:46Z</time>
      </trkpt>
      <trkpt lat="44.53429" lon="5.62012">
        <ele>1626.23</ele>
        <time>2021-08-27T08:12:04Z</time>
      </trkpt>
      <trkpt lat="44.53427" lon="5.62012">
        <ele>1626.48</ele>
        <time>2021-08-27T08:12:25Z</time>
      </trkpt>
      <trkpt lat="44.53426" lon="5.62013">
        <ele>1627.08</ele>
        <time>2021-08-27T08:12:51Z</time>
      </trkpt>
      <trkpt lat="44.53424" lon="5.62015">
        <ele>1627.45</ele>
        <time>2021-08-27T08:13:20Z</time>
      </trkpt>
      <trkpt lat="44.53425" lon="5.62013">
        <ele>1627.31</ele>
        <time>2021-08-27T08:13:44Z</time>
      </trkpt>
      <trkpt lat="44.53427" lon="5.6201">
        <ele>1627.04</ele>
        <time>2021-08-27T08:14:01Z</time>
      </trkpt>
      <trkpt lat="44.53424" lon="5.6201">
        <ele>1627.31</ele>
        <time>2021-08-27T08:14:13Z</time>
      </trkpt>
      <trkpt lat="44.53428" lon="5.62011">
        <ele>1627.26</ele>
        <time>2021-08-27T08:14:28Z</time>
      </trkpt>
      <trkpt lat="44.53427" lon="5.62014">
        <ele>1627.01</ele>
        <time>2021-08-27T08:14:47Z</time>
      </trkpt>
      <trkpt lat="44.53425" lon="5.6201">
        <ele>1627.77</ele>
        <time>2021-08-27T08:14:59Z</time>
      </trkpt>
      <trkpt lat="44.53428" lon="5.62013">
        <ele>1627.53</ele>
        <time>2021-08-27T08:15:19Z</time>
      </trkpt>
      <trkpt lat="44.53428" lon="5.62009">
        <ele>1627.01</ele>
        <time>2021-08-27T08:15:35Z</time>
      </trkpt>
      <trkpt lat="44.53425" lon="5.62011">
        <ele>1627.53</ele>
        <time>2021-08-27T08:15:52Z</time>
      </trkpt>
      <trkpt lat="44.53426" lon="5.62012">
        <ele>1628.92</ele>
        <time>2021-08-27T08:16:18Z</time>
      </trkpt>
      <trkpt lat="44.53426" lon="5.62012">
        <ele>1628.2</ele>
        <time>2021-08-27T08:16:56Z</time>
      </trkpt>
      <trkpt lat="44.53427" lon="5.62013">
        <ele>1628.34</ele>
        <time>2021-08-27T08:17:23Z</time>
      </trkpt>
      <trkpt lat="44.53426" lon="5.62012">
        <ele>1628.4</ele>
        <time>2021-08-27T08:17:39Z</time>
      </trkpt>
      <trkpt lat="44.53422" lon="5.62017">
        <ele>1628.73</ele>
        <time>2021-08-27T08:18:01Z</time>
      </trkpt>
      <trkpt lat="44.53418" lon="5.62026">
        <ele>1627.82</ele>
        <time>2021-08-27T08:18:16Z</time>
      </trkpt>
      <trkpt lat="44.53416" lon="5.62036">
        <ele>1627.79</ele>
        <time>2021-08-27T08:18:34Z</time>
      </trkpt>
      <trkpt lat="44.53432" lon="5.62031">
        <ele>1626.81</ele>
        <time>2021-08-27T08:18:55Z</time>
      </trkpt>
      <trkpt lat="44.53442" lon="5.62033">
        <ele>1624.9</ele>
        <time>2021-08-27T08:19:14Z</time>
      </trkpt>
      <trkpt lat="44.53451" lon="5.62038">
        <ele>1622.7</ele>
        <time>2021-08-27T08:19:34Z</time>
      </trkpt>
      <trkpt lat="44.53458" lon="5.62044">
        <ele>1619.51</ele>
        <time>2021-08-27T08:19:51Z</time>
      </trkpt>
      <trkpt lat="44.5346" lon="5.62047">
        <ele>1618.08</ele>
        <time>2021-08-27T08:20:15Z</time>
      </trkpt>
      <trkpt lat="44.53461" lon="5.6205">
        <ele>1616.83</ele>
        <time>2021-08-27T08:20:32Z</time>
      </trkpt>
      <trkpt lat="44.53463" lon="5.62049">
        <ele>1616.03</ele>
        <time>2021-08-27T08:20:53Z</time>
      </trkpt>
      <trkpt lat="44.53467" lon="5.62049">
        <ele>1614.26</ele>
        <time>2021-08-27T08:21:18Z</time>
      </trkpt>
      <trkpt lat="44.53469" lon="5.62059">
        <ele>1612.38</ele>
        <time>2021-08-27T08:21:39Z</time>
      </trkpt>
      <trkpt lat="44.53471" lon="5.62063">
        <ele>1611.74</ele>
        <time>2021-08-27T08:21:52Z</time>
      </trkpt>
      <trkpt lat="44.53478" lon="5.62065">
        <ele>1608.73</ele>
        <time>2021-08-27T08:22:10Z</time>
      </trkpt>
      <trkpt lat="44.53487" lon="5.62069">
        <ele>1606.38</ele>
        <time>2021-08-27T08:22:31Z</time>
      </trkpt>
      <trkpt lat="44.53495" lon="5.62079">
        <ele>1603.38</ele>
        <time>2021-08-27T08:22:53Z</time>
      </trkpt>
      <trkpt lat="44.535" lon="5.62089">
        <ele>1600.29</ele>
        <time>2021-08-27T08:23:12Z</time>
      </trkpt>
      <trkpt lat="44.53506" lon="5.62098">
        <ele>1597.2</ele>
        <time>2021-08-27T08:23:30Z</time>
      </trkpt>
      <trkpt lat="44.53513" lon="5.62105">
        <ele>1594.8</ele>
        <time>2021-08-27T08:23:52Z</time>
      </trkpt>
      <trkpt lat="44.53517" lon="5.62114">
        <ele>1592.09</ele>
        <time>2021-08-27T08:24:13Z</time>
      </trkpt>
      <trkpt lat="44.53524" lon="5.62127">
        <ele>1589.07</ele>
        <time>2021-08-27T08:24:37Z</time>
      </trkpt>
      <trkpt lat="44.53529" lon="5.62135">
        <ele>1586.92</ele>
        <time>2021-08-27T08:24:59Z</time>
      </trkpt>
      <trkpt lat="44.53536" lon="5.62145">
        <ele>1583.77</ele>
        <time>2021-08-27T08:25:18Z</time>
      </trkpt>
      <trkpt lat="44.53544" lon="5.62157">
        <ele>1581.28</ele>
        <time>2021-08-27T08:25:38Z</time>
      </trkpt>
      <trkpt lat="44.53547" lon="5.62165">
        <ele>1578.37</ele>
        <time>2021-08-27T08:26:02Z</time>
      </trkpt>
      <trkpt lat="44.5355" lon="5.62178">
        <ele>1575.26</ele>
        <time>2021-08-27T08:26:24Z</time>
      </trkpt>
      <trkpt lat="44.5355" lon="5.62186">
        <ele>1573.62</ele>
        <time>2021-08-27T08:26:46Z</time>
      </trkpt>
      <trkpt lat="44.53555" lon="5.622">
        <ele>1570.61</ele>
        <time>2021-08-27T08:27:07Z</time>
      </trkpt>
      <trkpt lat="44.53556" lon="5.62212">
        <ele>1567.54</ele>
        <time>2021-08-27T08:27:26Z</time>
      </trkpt>
      <trkpt lat="44.53556" lon="5.62227">
        <ele>1564.13</ele>
        <time>2021-08-27T08:27:46Z</time>
      </trkpt>
      <trkpt lat="44.53556" lon="5.62238">
        <ele>1561.07</ele>
        <time>2021-08-27T08:28:00Z</time>
      </trkpt>
      <trkpt lat="44.53558" lon="5.62255">
        <ele>1558.26</ele>
        <time>2021-08-27T08:28:21Z</time>
      </trkpt>
      <trkpt lat="44.53562" lon="5.62268">
        <ele>1555.85</ele>
        <time>2021-08-27T08:28:40Z</time>
      </trkpt>
      <trkpt lat="44.53563" lon="5.62285">
        <ele>1554.14</ele>
        <time>2021-08-27T08:29:00Z</time>
      </trkpt>
      <trkpt lat="44.53565" lon="5.62301">
        <ele>1550.88</ele>
        <time>2021-08-27T08:29:18Z</time>
      </trkpt>
      <trkpt lat="44.5356" lon="5.62316">
        <ele>1548.86</ele>
        <time>2021-08-27T08:29:37Z</time>
      </trkpt>
      <trkpt lat="44.53555" lon="5.62325">
        <ele>1545.7</ele>
        <time>2021-08-27T08:29:56Z</time>
      </trkpt>
      <trkpt lat="44.53554" lon="5.62327">
        <ele>1544.15</ele>
        <time>2021-08-27T08:30:06Z</time>
      </trkpt>
      <trkpt lat="44.53551" lon="5.62335">
        <ele>1541.89</ele>
        <time>2021-08-27T08:30:28Z</time>
      </trkpt>
      <trkpt lat="44.53555" lon="5.62343">
        <ele>1538.88</ele>
        <time>2021-08-27T08:30:46Z</time>
      </trkpt>
      <trkpt lat="44.53559" lon="5.6236">
        <ele>1536.28</ele>
        <time>2021-08-27T08:31:07Z</time>
      </trkpt>
      <trkpt lat="44.53556" lon="5.62368">
        <ele>1534.79</ele>
        <time>2021-08-27T08:31:29Z</time>
      </trkpt>
      <trkpt lat="44.53557" lon="5.62379">
        <ele>1531.5</ele>
        <time>2021-08-27T08:31:48Z</time>
      </trkpt>
      <trkpt lat="44.53561" lon="5.62387">
        <ele>1528.37</ele>
        <time>2021-08-27T08:32:06Z</time>
      </trkpt>
      <trkpt lat="44.53562" lon="5.62399">
        <ele>1525.31</ele>
        <time>2021-08-27T08:32:26Z</time>
      </trkpt>
      <trkpt lat="44.53561" lon="5.62414">
        <ele>1522.78</ele>
        <time>2021-08-27T08:32:45Z</time>
      </trkpt>
      <trkpt lat="44.53556" lon="5.62423">
        <ele>1520.91</ele>
        <time>2021-08-27T08:33:06Z</time>
      </trkpt>
      <trkpt lat="44.53561" lon="5.62441">
        <ele>1519.04</ele>
        <time>2021-08-27T08:33:24Z</time>
      </trkpt>
      <trkpt lat="44.53564" lon="5.62459">
        <ele>1518.29</ele>
        <time>2021-08-27T08:33:40Z</time>
      </trkpt>
      <trkpt lat="44.53562" lon="5.62464">
        <ele>1519.47</ele>
        <time>2021-08-27T08:33:45Z</time>
      </trkpt>
      <trkpt lat="44.53561" lon="5.62467">
        <ele>1518.94</ele>
        <time>2021-08-27T08:33:48Z</time>
      </trkpt>
      <trkpt lat="44.53554" lon="5.62473">
        <ele>1520.67</ele>
        <time>2021-08-27T08:34:04Z</time>
      </trkpt>
      <trkpt lat="44.53552" lon="5.62476">
        <ele>1519.94</ele>
        <time>2021-08-27T08:34:13Z</time>
      </trkpt>
      <trkpt lat="44.53549" lon="5.62483">
        <ele>1518.42</ele>
        <time>2021-08-27T08:34:31Z</time>
      </trkpt>
      <trkpt lat="44.53548" lon="5.6249">
        <ele>1518.18</ele>
        <time>2021-08-27T08:35:00Z</time>
      </trkpt>
      <trkpt lat="44.53543" lon="5.62504">
        <ele>1515.07</ele>
        <time>2021-08-27T08:35:19Z</time>
      </trkpt>
      <trkpt lat="44.5354" lon="5.62515">
        <ele>1512.67</ele>
        <time>2021-08-27T08:35:38Z</time>
      </trkpt>
      <trkpt lat="44.53539" lon="5.62521">
        <ele>1509.83</ele>
        <time>2021-08-27T08:35:56Z</time>
      </trkpt>
      <trkpt lat="44.53539" lon="5.62527">
        <ele>1507.39</ele>
        <time>2021-08-27T08:36:14Z</time>
      </trkpt>
      <trkpt lat="44.53538" lon="5.62537">
        <ele>1505.31</ele>
        <time>2021-08-27T08:36:31Z</time>
      </trkpt>
      <trkpt lat="44.53534" lon="5.62546">
        <ele>1502.31</ele>
        <time>2021-08-27T08:36:51Z</time>
      </trkpt>
      <trkpt lat="44.5353" lon="5.62558">
        <ele>1499.29</ele>
        <time>2021-08-27T08:37:12Z</time>
      </trkpt>
      <trkpt lat="44.53527" lon="5.62572">
        <ele>1496.38</ele>
        <time>2021-08-27T08:37:34Z</time>
      </trkpt>
      <trkpt lat="44.53522" lon="5.62583">
        <ele>1493.58</ele>
        <time>2021-08-27T08:37:51Z</time>
      </trkpt>
      <trkpt lat="44.53518" lon="5.62592">
        <ele>1491.21</ele>
        <time>2021-08-27T08:38:08Z</time>
      </trkpt>
      <trkpt lat="44.53517" lon="5.62601">
        <ele>1489.3</ele>
        <time>2021-08-27T08:38:16Z</time>
      </trkpt>
      <trkpt lat="44.53518" lon="5.6262">
        <ele>1489.3</ele>
        <time>2021-08-27T08:38:30Z</time>
      </trkpt>
      <trkpt lat="44.5352" lon="5.62638">
        <ele>1487.73</ele>
        <time>2021-08-27T08:38:44Z</time>
      </trkpt>
      <trkpt lat="44.5352" lon="5.62639">
        <ele>1487.73</ele>
        <time>2021-08-27T08:38:45Z</time>
      </trkpt>
      <trkpt lat="44.53522" lon="5.62658">
        <ele>1485.21</ele>
        <time>2021-08-27T08:39:01Z</time>
      </trkpt>
      <trkpt lat="44.53528" lon="5.62678">
        <ele>1482.61</ele>
        <time>2021-08-27T08:39:20Z</time>
      </trkpt>
      <trkpt lat="44.53537" lon="5.62685">
        <ele>1480.33</ele>
        <time>2021-08-27T08:39:39Z</time>
      </trkpt>
      <trkpt lat="44.5354" lon="5.62684">
        <ele>1479.95</ele>
        <time>2021-08-27T08:39:43Z</time>
      </trkpt>
      <trkpt lat="44.53551" lon="5.62683">
        <ele>1477.61</ele>
        <time>2021-08-27T08:39:57Z</time>
      </trkpt>
      <trkpt lat="44.53559" lon="5.62687">
        <ele>1476.76</ele>
        <time>2021-08-27T08:40:08Z</time>
      </trkpt>
      <trkpt lat="44.53572" lon="5.62695">
        <ele>1475.79</ele>
        <time>2021-08-27T08:40:22Z</time>
      </trkpt>
      <trkpt lat="44.5358" lon="5.627">
        <ele>1475.81</ele>
        <time>2021-08-27T08:40:32Z</time>
      </trkpt>
      <trkpt lat="44.53585" lon="5.62703">
        <ele>1475.83</ele>
        <time>2021-08-27T08:40:38Z</time>
      </trkpt>
      <trkpt lat="44.53597" lon="5.6271">
        <ele>1476.03</ele>
        <time>2021-08-27T08:40:54Z</time>
      </trkpt>
      <trkpt lat="44.53601" lon="5.62709">
        <ele>1476.25</ele>
        <time>2021-08-27T08:40:59Z</time>
      </trkpt>
      <trkpt lat="44.53609" lon="5.62697">
        <ele>1475.96</ele>
        <time>2021-08-27T08:41:08Z</time>
      </trkpt>
      <trkpt lat="44.53612" lon="5.6269">
        <ele>1476.33</ele>
        <time>2021-08-27T08:41:16Z</time>
      </trkpt>
      <trkpt lat="44.53617" lon="5.62678">
        <ele>1477.19</ele>
        <time>2021-08-27T08:41:29Z</time>
      </trkpt>
      <trkpt lat="44.53618" lon="5.62674">
        <ele>1477.45</ele>
        <time>2021-08-27T08:41:32Z</time>
      </trkpt>
      <trkpt lat="44.53623" lon="5.62659">
        <ele>1478.01</ele>
        <time>2021-08-27T08:41:47Z</time>
      </trkpt>
      <trkpt lat="44.53629" lon="5.62652">
        <ele>1479.19</ele>
        <time>2021-08-27T08:41:59Z</time>
      </trkpt>
      <trkpt lat="44.5363" lon="5.62651">
        <ele>1478.97</ele>
        <time>2021-08-27T08:42:00Z</time>
      </trkpt>
      <trkpt lat="44.53636" lon="5.62645">
        <ele>1480.48</ele>
        <time>2021-08-27T08:42:12Z</time>
      </trkpt>
      <trkpt lat="44.53645" lon="5.62634">
        <ele>1481.76</ele>
        <time>2021-08-27T08:42:26Z</time>
      </trkpt>
      <trkpt lat="44.53646" lon="5.62632">
        <ele>1482.27</ele>
        <time>2021-08-27T08:42:28Z</time>
      </trkpt>
      <trkpt lat="44.53648" lon="5.6263">
        <ele>1482.34</ele>
        <time>2021-08-27T08:42:30Z</time>
      </trkpt>
      <trkpt lat="44.53656" lon="5.62621">
        <ele>1483.18</ele>
        <time>2021-08-27T08:42:44Z</time>
      </trkpt>
      <trkpt lat="44.53659" lon="5.62619">
        <ele>1483.24</ele>
        <time>2021-08-27T08:42:48Z</time>
      </trkpt>
      <trkpt lat="44.53669" lon="5.6261">
        <ele>1484.72</ele>
        <time>2021-08-27T08:43:02Z</time>
      </trkpt>
      <trkpt lat="44.53682" lon="5.626">
        <ele>1485.51</ele>
        <time>2021-08-27T08:43:20Z</time>
      </trkpt>
      <trkpt lat="44.53694" lon="5.62593">
        <ele>1486.43</ele>
        <time>2021-08-27T08:43:36Z</time>
      </trkpt>
      <trkpt lat="44.53705" lon="5.62584">
        <ele>1486.89</ele>
        <time>2021-08-27T08:43:50Z</time>
      </trkpt>
      <trkpt lat="44.5371" lon="5.62583">
        <ele>1487.29</ele>
        <time>2021-08-27T08:44:02Z</time>
      </trkpt>
      <trkpt lat="44.5372" lon="5.62573">
        <ele>1486.71</ele>
        <time>2021-08-27T08:44:21Z</time>
      </trkpt>
      <trkpt lat="44.53733" lon="5.62562">
        <ele>1487.42</ele>
        <time>2021-08-27T08:44:36Z</time>
      </trkpt>
      <trkpt lat="44.53744" lon="5.62552">
        <ele>1486.95</ele>
        <time>2021-08-27T08:44:49Z</time>
      </trkpt>
      <trkpt lat="44.53746" lon="5.62551">
        <ele>1486.83</ele>
        <time>2021-08-27T08:44:51Z</time>
      </trkpt>
      <trkpt lat="44.53752" lon="5.62547">
        <ele>1486.53</ele>
        <time>2021-08-27T08:44:58Z</time>
      </trkpt>
      <trkpt lat="44.53766" lon="5.6254">
        <ele>1486.46</ele>
        <time>2021-08-27T08:45:13Z</time>
      </trkpt>
      <trkpt lat="44.53773" lon="5.62536">
        <ele>1486.09</ele>
        <time>2021-08-27T08:45:22Z</time>
      </trkpt>
      <trkpt lat="44.53784" lon="5.62526">
        <ele>1485.28</ele>
        <time>2021-08-27T08:45:34Z</time>
      </trkpt>
      <trkpt lat="44.53794" lon="5.62517">
        <ele>1485.02</ele>
        <time>2021-08-27T08:45:48Z</time>
      </trkpt>
      <trkpt lat="44.53805" lon="5.62509">
        <ele>1484.57</ele>
        <time>2021-08-27T08:46:02Z</time>
      </trkpt>
      <trkpt lat="44.53817" lon="5.62501">
        <ele>1483.46</ele>
        <time>2021-08-27T08:46:21Z</time>
      </trkpt>
      <trkpt lat="44.53828" lon="5.62493">
        <ele>1482.82</ele>
        <time>2021-08-27T08:46:38Z</time>
      </trkpt>
      <trkpt lat="44.53848" lon="5.62473">
        <ele>1483.27</ele>
        <time>2021-08-27T08:47:01Z</time>
      </trkpt>
      <trkpt lat="44.5386" lon="5.62463">
        <ele>1483.38</ele>
        <time>2021-08-27T08:47:19Z</time>
      </trkpt>
      <trkpt lat="44.53865" lon="5.62459">
        <ele>1483.54</ele>
        <time>2021-08-27T08:47:29Z</time>
      </trkpt>
      <trkpt lat="44.53874" lon="5.62452">
        <ele>1482.09</ele>
        <time>2021-08-27T08:47:47Z</time>
      </trkpt>
      <trkpt lat="44.53876" lon="5.62451">
        <ele>1481.96</ele>
        <time>2021-08-27T08:47:53Z</time>
      </trkpt>
      <trkpt lat="44.53881" lon="5.62444">
        <ele>1483.06</ele>
        <time>2021-08-27T08:48:13Z</time>
      </trkpt>
      <trkpt lat="44.53884" lon="5.6244">
        <ele>1483.97</ele>
        <time>2021-08-27T08:48:34Z</time>
      </trkpt>
      <trkpt lat="44.5389" lon="5.62427">
        <ele>1484.85</ele>
        <time>2021-08-27T08:48:56Z</time>
      </trkpt>
      <trkpt lat="44.53898" lon="5.62412">
        <ele>1485.86</ele>
        <time>2021-08-27T08:49:18Z</time>
      </trkpt>
      <trkpt lat="44.539" lon="5.6241">
        <ele>1485.98</ele>
        <time>2021-08-27T08:49:22Z</time>
      </trkpt>
      <trkpt lat="44.53917" lon="5.62392">
        <ele>1486.18</ele>
        <time>2021-08-27T08:49:43Z</time>
      </trkpt>
      <trkpt lat="44.53919" lon="5.62382">
        <ele>1487.67</ele>
        <time>2021-08-27T08:49:55Z</time>
      </trkpt>
      <trkpt lat="44.53922" lon="5.62376">
        <ele>1488.5</ele>
        <time>2021-08-27T08:50:02Z</time>
      </trkpt>
      <trkpt lat="44.5393" lon="5.62352">
        <ele>1489.19</ele>
        <time>2021-08-27T08:50:24Z</time>
      </trkpt>
      <trkpt lat="44.53941" lon="5.6233">
        <ele>1489.51</ele>
        <time>2021-08-27T08:50:42Z</time>
      </trkpt>
      <trkpt lat="44.53947" lon="5.6231">
        <ele>1489.15</ele>
        <time>2021-08-27T08:50:59Z</time>
      </trkpt>
      <trkpt lat="44.53952" lon="5.62298">
        <ele>1489.66</ele>
        <time>2021-08-27T08:51:21Z</time>
      </trkpt>
      <trkpt lat="44.53954" lon="5.62284">
        <ele>1488.4</ele>
        <time>2021-08-27T08:51:39Z</time>
      </trkpt>
      <trkpt lat="44.53957" lon="5.6228">
        <ele>1485.89</ele>
        <time>2021-08-27T08:52:02Z</time>
      </trkpt>
      <trkpt lat="44.53962" lon="5.62274">
        <ele>1483.57</ele>
        <time>2021-08-27T08:52:20Z</time>
      </trkpt>
      <trkpt lat="44.53973" lon="5.62267">
        <ele>1482.65</ele>
        <time>2021-08-27T08:52:43Z</time>
      </trkpt>
      <trkpt lat="44.53976" lon="5.62246">
        <ele>1484.78</ele>
        <time>2021-08-27T08:53:03Z</time>
      </trkpt>
      <trkpt lat="44.53978" lon="5.62223">
        <ele>1485.46</ele>
        <time>2021-08-27T08:53:26Z</time>
      </trkpt>
      <trkpt lat="44.53982" lon="5.62209">
        <ele>1483.46</ele>
        <time>2021-08-27T08:53:40Z</time>
      </trkpt>
      <trkpt lat="44.53981" lon="5.62206">
        <ele>1483.08</ele>
        <time>2021-08-27T08:53:43Z</time>
      </trkpt>
      <trkpt lat="44.53983" lon="5.62193">
        <ele>1479.83</ele>
        <time>2021-08-27T08:54:06Z</time>
      </trkpt>
      <trkpt lat="44.53984" lon="5.62192">
        <ele>1479.7</ele>
        <time>2021-08-27T08:54:08Z</time>
      </trkpt>
      <trkpt lat="44.5399" lon="5.62192">
        <ele>1478.54</ele>
        <time>2021-08-27T08:54:18Z</time>
      </trkpt>
      <trkpt lat="44.53998" lon="5.62183">
        <ele>1475.38</ele>
        <time>2021-08-27T08:54:39Z</time>
      </trkpt>
      <trkpt lat="44.54011" lon="5.62178">
        <ele>1472.45</ele>
        <time>2021-08-27T08:55:01Z</time>
      </trkpt>
      <trkpt lat="44.54016" lon="5.62173">
        <ele>1470.81</ele>
        <time>2021-08-27T08:55:24Z</time>
      </trkpt>
      <trkpt lat="44.54016" lon="5.62163">
        <ele>1467.76</ele>
        <time>2021-08-27T08:55:40Z</time>
      </trkpt>
      <trkpt lat="44.54013" lon="5.62154">
        <ele>1464.95</ele>
        <time>2021-08-27T08:56:01Z</time>
      </trkpt>
      <trkpt lat="44.54014" lon="5.62152">
        <ele>1464.47</ele>
        <time>2021-08-27T08:56:05Z</time>
      </trkpt>
      <trkpt lat="44.54015" lon="5.62131">
        <ele>1460.93</ele>
        <time>2021-08-27T08:56:29Z</time>
      </trkpt>
      <trkpt lat="44.54011" lon="5.62115">
        <ele>1458.89</ele>
        <time>2021-08-27T08:56:49Z</time>
      </trkpt>
      <trkpt lat="44.54008" lon="5.62096">
        <ele>1456.51</ele>
        <time>2021-08-27T08:57:09Z</time>
      </trkpt>
      <trkpt lat="44.54011" lon="5.62081">
        <ele>1453.4</ele>
        <time>2021-08-27T08:57:28Z</time>
      </trkpt>
      <trkpt lat="44.54017" lon="5.6207">
        <ele>1450.76</ele>
        <time>2021-08-27T08:57:50Z</time>
      </trkpt>
      <trkpt lat="44.54015" lon="5.62062">
        <ele>1448.9</ele>
        <time>2021-08-27T08:58:07Z</time>
      </trkpt>
      <trkpt lat="44.54011" lon="5.62049">
        <ele>1446.07</ele>
        <time>2021-08-27T08:58:29Z</time>
      </trkpt>
      <trkpt lat="44.54008" lon="5.62029">
        <ele>1443.45</ele>
        <time>2021-08-27T08:58:51Z</time>
      </trkpt>
      <trkpt lat="44.54007" lon="5.62016">
        <ele>1442.39</ele>
        <time>2021-08-27T08:59:07Z</time>
      </trkpt>
      <trkpt lat="44.54005" lon="5.62011">
        <ele>1441.63</ele>
        <time>2021-08-27T08:59:15Z</time>
      </trkpt>
      <trkpt lat="44.54" lon="5.61988">
        <ele>1440.17</ele>
        <time>2021-08-27T08:59:37Z</time>
      </trkpt>
      <trkpt lat="44.53997" lon="5.61963">
        <ele>1441.77</ele>
        <time>2021-08-27T08:59:57Z</time>
      </trkpt>
      <trkpt lat="44.54" lon="5.61941">
        <ele>1440.66</ele>
        <time>2021-08-27T09:00:17Z</time>
      </trkpt>
      <trkpt lat="44.54001" lon="5.61916">
        <ele>1438.74</ele>
        <time>2021-08-27T09:00:38Z</time>
      </trkpt>
      <trkpt lat="44.53998" lon="5.61886">
        <ele>1438.9</ele>
        <time>2021-08-27T09:01:04Z</time>
      </trkpt>
      <trkpt lat="44.53999" lon="5.61868">
        <ele>1441.18</ele>
        <time>2021-08-27T09:01:25Z</time>
      </trkpt>
      <trkpt lat="44.54003" lon="5.61846">
        <ele>1440.36</ele>
        <time>2021-08-27T09:01:43Z</time>
      </trkpt>
      <trkpt lat="44.54" lon="5.61823">
        <ele>1439.88</ele>
        <time>2021-08-27T09:02:04Z</time>
      </trkpt>
      <trkpt lat="44.53996" lon="5.61805">
        <ele>1438.26</ele>
        <time>2021-08-27T09:02:25Z</time>
      </trkpt>
      <trkpt lat="44.53999" lon="5.61794">
        <ele>1435.08</ele>
        <time>2021-08-27T09:02:43Z</time>
      </trkpt>
      <trkpt lat="44.54003" lon="5.61782">
        <ele>1432.25</ele>
        <time>2021-08-27T09:03:03Z</time>
      </trkpt>
      <trkpt lat="44.54013" lon="5.61772">
        <ele>1429.06</ele>
        <time>2021-08-27T09:03:22Z</time>
      </trkpt>
      <trkpt lat="44.54018" lon="5.61762">
        <ele>1425.97</ele>
        <time>2021-08-27T09:03:41Z</time>
      </trkpt>
      <trkpt lat="44.54025" lon="5.61753">
        <ele>1422.86</ele>
        <time>2021-08-27T09:04:01Z</time>
      </trkpt>
      <trkpt lat="44.54033" lon="5.61749">
        <ele>1419.56</ele>
        <time>2021-08-27T09:04:23Z</time>
      </trkpt>
      <trkpt lat="44.54035" lon="5.61747">
        <ele>1419.1</ele>
        <time>2021-08-27T09:04:26Z</time>
      </trkpt>
      <trkpt lat="44.54038" lon="5.61747">
        <ele>1419.2</ele>
        <time>2021-08-27T09:04:30Z</time>
      </trkpt>
      <trkpt lat="44.54041" lon="5.61745">
        <ele>1418.17</ele>
        <time>2021-08-27T09:04:35Z</time>
      </trkpt>
      <trkpt lat="44.54058" lon="5.61736">
        <ele>1415.33</ele>
        <time>2021-08-27T09:04:58Z</time>
      </trkpt>
      <trkpt lat="44.54068" lon="5.61724">
        <ele>1412.25</ele>
        <time>2021-08-27T09:05:21Z</time>
      </trkpt>
      <trkpt lat="44.54072" lon="5.61717">
        <ele>1409.21</ele>
        <time>2021-08-27T09:05:38Z</time>
      </trkpt>
      <trkpt lat="44.5408" lon="5.61707">
        <ele>1406.46</ele>
        <time>2021-08-27T09:06:00Z</time>
      </trkpt>
      <trkpt lat="44.54084" lon="5.61701">
        <ele>1406.01</ele>
        <time>2021-08-27T09:06:18Z</time>
      </trkpt>
      <trkpt lat="44.54079" lon="5.61698">
        <ele>1406.43</ele>
        <time>2021-08-27T09:06:39Z</time>
      </trkpt>
      <trkpt lat="44.54068" lon="5.61702">
        <ele>1406.68</ele>
        <time>2021-08-27T09:06:51Z</time>
      </trkpt>
      <trkpt lat="44.54053" lon="5.61701">
        <ele>1407.6</ele>
        <time>2021-08-27T09:07:08Z</time>
      </trkpt>
      <trkpt lat="44.54041" lon="5.61698">
        <ele>1408.2</ele>
        <time>2021-08-27T09:07:20Z</time>
      </trkpt>
      <trkpt lat="44.54038" lon="5.61697">
        <ele>1408.21</ele>
        <time>2021-08-27T09:07:23Z</time>
      </trkpt>
      <trkpt lat="44.54024" lon="5.61694">
        <ele>1408.79</ele>
        <time>2021-08-27T09:07:42Z</time>
      </trkpt>
      <trkpt lat="44.54004" lon="5.61684">
        <ele>1409.74</ele>
        <time>2021-08-27T09:08:06Z</time>
      </trkpt>
      <trkpt lat="44.53995" lon="5.61679">
        <ele>1411.65</ele>
        <time>2021-08-27T09:08:26Z</time>
      </trkpt>
      <trkpt lat="44.53994" lon="5.61679">
        <ele>1411.31</ele>
        <time>2021-08-27T09:08:30Z</time>
      </trkpt>
      <trkpt lat="44.53977" lon="5.6167">
        <ele>1412.6</ele>
        <time>2021-08-27T09:08:47Z</time>
      </trkpt>
      <trkpt lat="44.53965" lon="5.61649">
        <ele>1412.86</ele>
        <time>2021-08-27T09:09:06Z</time>
      </trkpt>
      <trkpt lat="44.53958" lon="5.61621">
        <ele>1414.15</ele>
        <time>2021-08-27T09:09:30Z</time>
      </trkpt>
      <trkpt lat="44.53941" lon="5.61604">
        <ele>1414.66</ele>
        <time>2021-08-27T09:09:52Z</time>
      </trkpt>
      <trkpt lat="44.53932" lon="5.61587">
        <ele>1415.68</ele>
        <time>2021-08-27T09:10:12Z</time>
      </trkpt>
      <trkpt lat="44.53921" lon="5.61565">
        <ele>1417.19</ele>
        <time>2021-08-27T09:10:32Z</time>
      </trkpt>
      <trkpt lat="44.53913" lon="5.61538">
        <ele>1417.99</ele>
        <time>2021-08-27T09:10:50Z</time>
      </trkpt>
      <trkpt lat="44.53908" lon="5.61511">
        <ele>1418.02</ele>
        <time>2021-08-27T09:11:13Z</time>
      </trkpt>
      <trkpt lat="44.53899" lon="5.61491">
        <ele>1417.53</ele>
        <time>2021-08-27T09:11:35Z</time>
      </trkpt>
      <trkpt lat="44.53879" lon="5.61489">
        <ele>1415.89</ele>
        <time>2021-08-27T09:11:56Z</time>
      </trkpt>
      <trkpt lat="44.5387" lon="5.61487">
        <ele>1414.75</ele>
        <time>2021-08-27T09:12:10Z</time>
      </trkpt>
      <trkpt lat="44.53854" lon="5.61487">
        <ele>1412.72</ele>
        <time>2021-08-27T09:12:30Z</time>
      </trkpt>
      <trkpt lat="44.53837" lon="5.61487">
        <ele>1410.48</ele>
        <time>2021-08-27T09:12:52Z</time>
      </trkpt>
      <trkpt lat="44.53818" lon="5.61473">
        <ele>1408.43</ele>
        <time>2021-08-27T09:13:15Z</time>
      </trkpt>
      <trkpt lat="44.53802" lon="5.61457">
        <ele>1406.04</ele>
        <time>2021-08-27T09:13:36Z</time>
      </trkpt>
      <trkpt lat="44.53787" lon="5.61444">
        <ele>1404.06</ele>
        <time>2021-08-27T09:13:54Z</time>
      </trkpt>
      <trkpt lat="44.53774" lon="5.61435">
        <ele>1402.3</ele>
        <time>2021-08-27T09:14:11Z</time>
      </trkpt>
      <trkpt lat="44.53761" lon="5.6143">
        <ele>1400.06</ele>
        <time>2021-08-27T09:14:31Z</time>
      </trkpt>
      <trkpt lat="44.53747" lon="5.61425">
        <ele>1398.34</ele>
        <time>2021-08-27T09:14:51Z</time>
      </trkpt>
      <trkpt lat="44.53734" lon="5.61411">
        <ele>1397.27</ele>
        <time>2021-08-27T09:15:12Z</time>
      </trkpt>
      <trkpt lat="44.53722" lon="5.61391">
        <ele>1396.07</ele>
        <time>2021-08-27T09:15:32Z</time>
      </trkpt>
      <trkpt lat="44.53712" lon="5.61372">
        <ele>1394.46</ele>
        <time>2021-08-27T09:15:53Z</time>
      </trkpt>
      <trkpt lat="44.537" lon="5.61354">
        <ele>1392.77</ele>
        <time>2021-08-27T09:16:11Z</time>
      </trkpt>
      <trkpt lat="44.53685" lon="5.61334">
        <ele>1391.31</ele>
        <time>2021-08-27T09:16:30Z</time>
      </trkpt>
      <trkpt lat="44.53672" lon="5.61316">
        <ele>1389.61</ele>
        <time>2021-08-27T09:16:50Z</time>
      </trkpt>
      <trkpt lat="44.53657" lon="5.61297">
        <ele>1388.77</ele>
        <time>2021-08-27T09:17:12Z</time>
      </trkpt>
      <trkpt lat="44.53654" lon="5.61283">
        <ele>1388.45</ele>
        <time>2021-08-27T09:17:23Z</time>
      </trkpt>
      <trkpt lat="44.53657" lon="5.61263">
        <ele>1387.13</ele>
        <time>2021-08-27T09:17:42Z</time>
      </trkpt>
      <trkpt lat="44.53665" lon="5.61242">
        <ele>1385.08</ele>
        <time>2021-08-27T09:18:04Z</time>
      </trkpt>
      <trkpt lat="44.53674" lon="5.61219">
        <ele>1382.59</ele>
        <time>2021-08-27T09:18:29Z</time>
      </trkpt>
      <trkpt lat="44.53682" lon="5.61202">
        <ele>1381.23</ele>
        <time>2021-08-27T09:18:49Z</time>
      </trkpt>
      <trkpt lat="44.53689" lon="5.61187">
        <ele>1379.68</ele>
        <time>2021-08-27T09:19:05Z</time>
      </trkpt>
      <trkpt lat="44.53697" lon="5.61161">
        <ele>1378.12</ele>
        <time>2021-08-27T09:19:26Z</time>
      </trkpt>
      <trkpt lat="44.53707" lon="5.61145">
        <ele>1376.19</ele>
        <time>2021-08-27T09:19:45Z</time>
      </trkpt>
      <trkpt lat="44.5372" lon="5.61123">
        <ele>1374.45</ele>
        <time>2021-08-27T09:20:07Z</time>
      </trkpt>
      <trkpt lat="44.53732" lon="5.61096">
        <ele>1372.05</ele>
        <time>2021-08-27T09:20:30Z</time>
      </trkpt>
      <trkpt lat="44.53738" lon="5.61078">
        <ele>1369.89</ele>
        <time>2021-08-27T09:20:50Z</time>
      </trkpt>
      <trkpt lat="44.53748" lon="5.61054">
        <ele>1368.03</ele>
        <time>2021-08-27T09:21:14Z</time>
      </trkpt>
      <trkpt lat="44.53758" lon="5.6103">
        <ele>1365.48</ele>
        <time>2021-08-27T09:21:36Z</time>
      </trkpt>
      <trkpt lat="44.53763" lon="5.61009">
        <ele>1363.82</ele>
        <time>2021-08-27T09:21:54Z</time>
      </trkpt>
      <trkpt lat="44.53774" lon="5.60987">
        <ele>1361.54</ele>
        <time>2021-08-27T09:22:16Z</time>
      </trkpt>
      <trkpt lat="44.53789" lon="5.60963">
        <ele>1359.44</ele>
        <time>2021-08-27T09:22:36Z</time>
      </trkpt>
      <trkpt lat="44.538" lon="5.6094">
        <ele>1357.46</ele>
        <time>2021-08-27T09:22:55Z</time>
      </trkpt>
      <trkpt lat="44.53804" lon="5.60927">
        <ele>1356.39</ele>
        <time>2021-08-27T09:23:06Z</time>
      </trkpt>
      <trkpt lat="44.53812" lon="5.60906">
        <ele>1354.62</ele>
        <time>2021-08-27T09:23:24Z</time>
      </trkpt>
      <trkpt lat="44.53811" lon="5.60905">
        <ele>1354.59</ele>
        <time>2021-08-27T09:23:25Z</time>
      </trkpt>
      <trkpt lat="44.53816" lon="5.60886">
        <ele>1352.84</ele>
        <time>2021-08-27T09:23:45Z</time>
      </trkpt>
      <trkpt lat="44.53821" lon="5.60864">
        <ele>1351</ele>
        <time>2021-08-27T09:24:07Z</time>
      </trkpt>
      <trkpt lat="44.53834" lon="5.60845">
        <ele>1349.66</ele>
        <time>2021-08-27T09:24:31Z</time>
      </trkpt>
      <trkpt lat="44.53838" lon="5.60823">
        <ele>1348.95</ele>
        <time>2021-08-27T09:24:49Z</time>
      </trkpt>
      <trkpt lat="44.53844" lon="5.60808">
        <ele>1350.92</ele>
        <time>2021-08-27T09:25:09Z</time>
      </trkpt>
      <trkpt lat="44.53847" lon="5.60791">
        <ele>1352.9</ele>
        <time>2021-08-27T09:25:27Z</time>
      </trkpt>
      <trkpt lat="44.53844" lon="5.60774">
        <ele>1353.21</ele>
        <time>2021-08-27T09:25:49Z</time>
      </trkpt>
      <trkpt lat="44.53847" lon="5.6077">
        <ele>1352.92</ele>
        <time>2021-08-27T09:25:57Z</time>
      </trkpt>
      <trkpt lat="44.53856" lon="5.60759">
        <ele>1352.8</ele>
        <time>2021-08-27T09:26:20Z</time>
      </trkpt>
      <trkpt lat="44.53863" lon="5.60748">
        <ele>1352.92</ele>
        <time>2021-08-27T09:26:41Z</time>
      </trkpt>
      <trkpt lat="44.5388" lon="5.60733">
        <ele>1352.23</ele>
        <time>2021-08-27T09:26:59Z</time>
      </trkpt>
      <trkpt lat="44.53891" lon="5.60722">
        <ele>1351.79</ele>
        <time>2021-08-27T09:27:14Z</time>
      </trkpt>
      <trkpt lat="44.53898" lon="5.60706">
        <ele>1350.23</ele>
        <time>2021-08-27T09:27:33Z</time>
      </trkpt>
      <trkpt lat="44.53916" lon="5.60677">
        <ele>1347.51</ele>
        <time>2021-08-27T09:27:58Z</time>
      </trkpt>
      <trkpt lat="44.53919" lon="5.60669">
        <ele>1346.21</ele>
        <time>2021-08-27T09:28:06Z</time>
      </trkpt>
      <trkpt lat="44.53926" lon="5.60658">
        <ele>1344.71</ele>
        <time>2021-08-27T09:28:21Z</time>
      </trkpt>
      <trkpt lat="44.53938" lon="5.60647">
        <ele>1342.52</ele>
        <time>2021-08-27T09:28:37Z</time>
      </trkpt>
      <trkpt lat="44.53951" lon="5.60622">
        <ele>1339.44</ele>
        <time>2021-08-27T09:28:59Z</time>
      </trkpt>
      <trkpt lat="44.53956" lon="5.60611">
        <ele>1337.21</ele>
        <time>2021-08-27T09:29:13Z</time>
      </trkpt>
      <trkpt lat="44.53964" lon="5.60596">
        <ele>1337.11</ele>
        <time>2021-08-27T09:29:33Z</time>
      </trkpt>
      <trkpt lat="44.53971" lon="5.60588">
        <ele>1336.46</ele>
        <time>2021-08-27T09:29:41Z</time>
      </trkpt>
      <trkpt lat="44.53973" lon="5.60586">
        <ele>1336.44</ele>
        <time>2021-08-27T09:29:43Z</time>
      </trkpt>
      <trkpt lat="44.53983" lon="5.6057">
        <ele>1335.01</ele>
        <time>2021-08-27T09:29:59Z</time>
      </trkpt>
      <trkpt lat="44.53982" lon="5.60566">
        <ele>1334.86</ele>
        <time>2021-08-27T09:30:01Z</time>
      </trkpt>
      <trkpt lat="44.53985" lon="5.60553">
        <ele>1334.06</ele>
        <time>2021-08-27T09:30:12Z</time>
      </trkpt>
      <trkpt lat="44.53988" lon="5.60545">
        <ele>1333.52</ele>
        <time>2021-08-27T09:30:20Z</time>
      </trkpt>
      <trkpt lat="44.54002" lon="5.60526">
        <ele>1331.44</ele>
        <time>2021-08-27T09:30:42Z</time>
      </trkpt>
      <trkpt lat="44.54012" lon="5.60513">
        <ele>1330.59</ele>
        <time>2021-08-27T09:30:55Z</time>
      </trkpt>
      <trkpt lat="44.5402" lon="5.60504">
        <ele>1329.86</ele>
        <time>2021-08-27T09:31:09Z</time>
      </trkpt>
      <trkpt lat="44.54037" lon="5.60495">
        <ele>1328.27</ele>
        <time>2021-08-27T09:31:34Z</time>
      </trkpt>
      <trkpt lat="44.54041" lon="5.60494">
        <ele>1327.92</ele>
        <time>2021-08-27T09:31:36Z</time>
      </trkpt>
      <trkpt lat="44.54043" lon="5.60493">
        <ele>1327.6</ele>
        <time>2021-08-27T09:31:39Z</time>
      </trkpt>
      <trkpt lat="44.54053" lon="5.60485">
        <ele>1326.45</ele>
        <time>2021-08-27T09:32:10Z</time>
      </trkpt>
      <trkpt lat="44.54054" lon="5.60484">
        <ele>1326.34</ele>
        <time>2021-08-27T09:32:11Z</time>
      </trkpt>
      <trkpt lat="44.54072" lon="5.60478">
        <ele>1323.17</ele>
        <time>2021-08-27T09:32:36Z</time>
      </trkpt>
      <trkpt lat="44.54083" lon="5.6047">
        <ele>1319.86</ele>
        <time>2021-08-27T09:32:58Z</time>
      </trkpt>
      <trkpt lat="44.54095" lon="5.60458">
        <ele>1316.66</ele>
        <time>2021-08-27T09:33:20Z</time>
      </trkpt>
      <trkpt lat="44.54107" lon="5.60443">
        <ele>1313.8</ele>
        <time>2021-08-27T09:33:42Z</time>
      </trkpt>
      <trkpt lat="44.54108" lon="5.60441">
        <ele>1313.44</ele>
        <time>2021-08-27T09:33:44Z</time>
      </trkpt>
      <trkpt lat="44.54117" lon="5.6043">
        <ele>1310.34</ele>
        <time>2021-08-27T09:33:59Z</time>
      </trkpt>
      <trkpt lat="44.54123" lon="5.60401">
        <ele>1309.39</ele>
        <time>2021-08-27T09:34:23Z</time>
      </trkpt>
      <trkpt lat="44.54126" lon="5.60394">
        <ele>1308.85</ele>
        <time>2021-08-27T09:34:31Z</time>
      </trkpt>
      <trkpt lat="44.54133" lon="5.60379">
        <ele>1305.88</ele>
        <time>2021-08-27T09:34:51Z</time>
      </trkpt>
      <trkpt lat="44.54142" lon="5.60363">
        <ele>1304.19</ele>
        <time>2021-08-27T09:35:06Z</time>
      </trkpt>
      <trkpt lat="44.54145" lon="5.60339">
        <ele>1302.8</ele>
        <time>2021-08-27T09:35:29Z</time>
      </trkpt>
      <trkpt lat="44.5415" lon="5.60324">
        <ele>1301.98</ele>
        <time>2021-08-27T09:35:46Z</time>
      </trkpt>
      <trkpt lat="44.54154" lon="5.60318">
        <ele>1301.38</ele>
        <time>2021-08-27T09:35:57Z</time>
      </trkpt>
      <trkpt lat="44.54166" lon="5.60309">
        <ele>1299.48</ele>
        <time>2021-08-27T09:36:18Z</time>
      </trkpt>
      <trkpt lat="44.54177" lon="5.60301">
        <ele>1298.01</ele>
        <time>2021-08-27T09:36:43Z</time>
      </trkpt>
      <trkpt lat="44.54189" lon="5.60292">
        <ele>1295.9</ele>
        <time>2021-08-27T09:37:00Z</time>
      </trkpt>
      <trkpt lat="44.54207" lon="5.6028">
        <ele>1294.55</ele>
        <time>2021-08-27T09:37:19Z</time>
      </trkpt>
      <trkpt lat="44.5422" lon="5.60274">
        <ele>1292.88</ele>
        <time>2021-08-27T09:37:37Z</time>
      </trkpt>
      <trkpt lat="44.54233" lon="5.60266">
        <ele>1290.21</ele>
        <time>2021-08-27T09:38:00Z</time>
      </trkpt>
      <trkpt lat="44.54246" lon="5.6026">
        <ele>1287.13</ele>
        <time>2021-08-27T09:38:17Z</time>
      </trkpt>
      <trkpt lat="44.54258" lon="5.60252">
        <ele>1284.26</ele>
        <time>2021-08-27T09:38:40Z</time>
      </trkpt>
      <trkpt lat="44.54265" lon="5.60244">
        <ele>1282.71</ele>
        <time>2021-08-27T09:38:53Z</time>
      </trkpt>
      <trkpt lat="44.54279" lon="5.60241">
        <ele>1281.84</ele>
        <time>2021-08-27T09:39:15Z</time>
      </trkpt>
      <trkpt lat="44.54282" lon="5.6024">
        <ele>1281.82</ele>
        <time>2021-08-27T09:39:45Z</time>
      </trkpt>
      <trkpt lat="44.5428" lon="5.6024">
        <ele>1281.86</ele>
        <time>2021-08-27T09:40:06Z</time>
      </trkpt>
      <trkpt lat="44.5429" lon="5.60244">
        <ele>1280.94</ele>
        <time>2021-08-27T09:40:40Z</time>
      </trkpt>
      <trkpt lat="44.54303" lon="5.60232">
        <ele>1277.94</ele>
        <time>2021-08-27T09:41:04Z</time>
      </trkpt>
      <trkpt lat="44.54323" lon="5.6022">
        <ele>1276.09</ele>
        <time>2021-08-27T09:41:27Z</time>
      </trkpt>
      <trkpt lat="44.54345" lon="5.60203">
        <ele>1274.82</ele>
        <time>2021-08-27T09:41:54Z</time>
      </trkpt>
      <trkpt lat="44.54365" lon="5.60191">
        <ele>1274.11</ele>
        <time>2021-08-27T09:42:18Z</time>
      </trkpt>
      <trkpt lat="44.54367" lon="5.60197">
        <ele>1274</ele>
        <time>2021-08-27T09:42:42Z</time>
      </trkpt>
      <trkpt lat="44.54365" lon="5.60201">
        <ele>1274.05</ele>
        <time>2021-08-27T09:43:08Z</time>
      </trkpt>
      <trkpt lat="44.54367" lon="5.60201">
        <ele>1274.03</ele>
        <time>2021-08-27T09:43:33Z</time>
      </trkpt>
      <trkpt lat="44.54367" lon="5.60197">
        <ele>1274.14</ele>
        <time>2021-08-27T09:43:59Z</time>
      </trkpt>
      <trkpt lat="44.54374" lon="5.60193">
        <ele>1273.79</ele>
        <time>2021-08-27T09:44:21Z</time>
      </trkpt>
      <trkpt lat="44.54384" lon="5.60182">
        <ele>1273.95</ele>
        <time>2021-08-27T09:44:38Z</time>
      </trkpt>
      <trkpt lat="44.54398" lon="5.60161">
        <ele>1273.45</ele>
        <time>2021-08-27T09:45:00Z</time>
      </trkpt>
      <trkpt lat="44.54409" lon="5.60143">
        <ele>1271.83</ele>
        <time>2021-08-27T09:45:21Z</time>
      </trkpt>
      <trkpt lat="44.54418" lon="5.60126">
        <ele>1268.82</ele>
        <time>2021-08-27T09:45:40Z</time>
      </trkpt>
      <trkpt lat="44.54428" lon="5.6011">
        <ele>1265.81</ele>
        <time>2021-08-27T09:45:58Z</time>
      </trkpt>
      <trkpt lat="44.54434" lon="5.60089">
        <ele>1263.62</ele>
        <time>2021-08-27T09:46:20Z</time>
      </trkpt>
      <trkpt lat="44.54443" lon="5.60071">
        <ele>1261.28</ele>
        <time>2021-08-27T09:46:41Z</time>
      </trkpt>
      <trkpt lat="44.54453" lon="5.60031">
        <ele>1260.55</ele>
        <time>2021-08-27T09:47:08Z</time>
      </trkpt>
      <trkpt lat="44.54469" lon="5.59998">
        <ele>1259.77</ele>
        <time>2021-08-27T09:47:32Z</time>
      </trkpt>
      <trkpt lat="44.54482" lon="5.5998">
        <ele>1259.74</ele>
        <time>2021-08-27T09:47:52Z</time>
      </trkpt>
      <trkpt lat="44.54496" lon="5.59963">
        <ele>1258.29</ele>
        <time>2021-08-27T09:48:16Z</time>
      </trkpt>
      <trkpt lat="44.54512" lon="5.59948">
        <ele>1256.55</ele>
        <time>2021-08-27T09:48:37Z</time>
      </trkpt>
      <trkpt lat="44.54525" lon="5.59932">
        <ele>1257.68</ele>
        <time>2021-08-27T09:48:54Z</time>
      </trkpt>
      <trkpt lat="44.5454" lon="5.59917">
        <ele>1256.77</ele>
        <time>2021-08-27T09:49:14Z</time>
      </trkpt>
      <trkpt lat="44.54555" lon="5.59903">
        <ele>1255.73</ele>
        <time>2021-08-27T09:49:33Z</time>
      </trkpt>
      <trkpt lat="44.54566" lon="5.59898">
        <ele>1252.39</ele>
        <time>2021-08-27T09:49:49Z</time>
      </trkpt>
      <trkpt lat="44.54573" lon="5.59892">
        <ele>1249.28</ele>
        <time>2021-08-27T09:50:07Z</time>
      </trkpt>
      <trkpt lat="44.54579" lon="5.59885">
        <ele>1246.6</ele>
        <time>2021-08-27T09:50:25Z</time>
      </trkpt>
      <trkpt lat="44.54589" lon="5.59881">
        <ele>1243.55</ele>
        <time>2021-08-27T09:50:44Z</time>
      </trkpt>
      <trkpt lat="44.54591" lon="5.59879">
        <ele>1243.01</ele>
        <time>2021-08-27T09:50:48Z</time>
      </trkpt>
      <trkpt lat="44.54603" lon="5.59877">
        <ele>1239.66</ele>
        <time>2021-08-27T09:51:05Z</time>
      </trkpt>
      <trkpt lat="44.54607" lon="5.59876">
        <ele>1238.48</ele>
        <time>2021-08-27T09:51:13Z</time>
      </trkpt>
      <trkpt lat="44.54621" lon="5.59876">
        <ele>1235.53</ele>
        <time>2021-08-27T09:51:32Z</time>
      </trkpt>
      <trkpt lat="44.54635" lon="5.59875">
        <ele>1232.66</ele>
        <time>2021-08-27T09:51:52Z</time>
      </trkpt>
      <trkpt lat="44.54648" lon="5.59868">
        <ele>1229.05</ele>
        <time>2021-08-27T09:52:13Z</time>
      </trkpt>
      <trkpt lat="44.54657" lon="5.59853">
        <ele>1227.64</ele>
        <time>2021-08-27T09:52:34Z</time>
      </trkpt>
      <trkpt lat="44.54665" lon="5.59842">
        <ele>1224.47</ele>
        <time>2021-08-27T09:52:51Z</time>
      </trkpt>
      <trkpt lat="44.54675" lon="5.59828">
        <ele>1221.84</ele>
        <time>2021-08-27T09:53:10Z</time>
      </trkpt>
      <trkpt lat="44.54689" lon="5.59816">
        <ele>1220.19</ele>
        <time>2021-08-27T09:53:30Z</time>
      </trkpt>
      <trkpt lat="44.54703" lon="5.59807">
        <ele>1217.41</ele>
        <time>2021-08-27T09:53:50Z</time>
      </trkpt>
      <trkpt lat="44.54706" lon="5.59798">
        <ele>1214.13</ele>
        <time>2021-08-27T09:54:05Z</time>
      </trkpt>
      <trkpt lat="44.54716" lon="5.598">
        <ele>1212.2</ele>
        <time>2021-08-27T09:54:20Z</time>
      </trkpt>
      <trkpt lat="44.54719" lon="5.59801">
        <ele>1211.61</ele>
        <time>2021-08-27T09:54:24Z</time>
      </trkpt>
      <trkpt lat="44.54722" lon="5.59803">
        <ele>1210.89</ele>
        <time>2021-08-27T09:54:29Z</time>
      </trkpt>
      <trkpt lat="44.54733" lon="5.59814">
        <ele>1207.83</ele>
        <time>2021-08-27T09:54:49Z</time>
      </trkpt>
      <trkpt lat="44.54743" lon="5.59826">
        <ele>1204.43</ele>
        <time>2021-08-27T09:55:08Z</time>
      </trkpt>
      <trkpt lat="44.54748" lon="5.59831">
        <ele>1201.99</ele>
        <time>2021-08-27T09:55:29Z</time>
      </trkpt>
      <trkpt lat="44.54754" lon="5.59835">
        <ele>1198.68</ele>
        <time>2021-08-27T09:55:51Z</time>
      </trkpt>
      <trkpt lat="44.54767" lon="5.59838">
        <ele>1196.67</ele>
        <time>2021-08-27T09:56:10Z</time>
      </trkpt>
      <trkpt lat="44.54787" lon="5.59841">
        <ele>1195.51</ele>
        <time>2021-08-27T09:56:31Z</time>
      </trkpt>
      <trkpt lat="44.54783" lon="5.59826">
        <ele>1194.2</ele>
        <time>2021-08-27T09:56:49Z</time>
      </trkpt>
      <trkpt lat="44.54773" lon="5.59808">
        <ele>1192.53</ele>
        <time>2021-08-27T09:57:07Z</time>
      </trkpt>
      <trkpt lat="44.54768" lon="5.5979">
        <ele>1190.52</ele>
        <time>2021-08-27T09:57:29Z</time>
      </trkpt>
      <trkpt lat="44.54775" lon="5.59765">
        <ele>1189.18</ele>
        <time>2021-08-27T09:57:54Z</time>
      </trkpt>
      <trkpt lat="44.54781" lon="5.59737">
        <ele>1186.31</ele>
        <time>2021-08-27T09:58:18Z</time>
      </trkpt>
      <trkpt lat="44.54785" lon="5.59711">
        <ele>1183.99</ele>
        <time>2021-08-27T09:58:42Z</time>
      </trkpt>
      <trkpt lat="44.54786" lon="5.59701">
        <ele>1182.91</ele>
        <time>2021-08-27T09:58:52Z</time>
      </trkpt>
      <trkpt lat="44.54789" lon="5.59678">
        <ele>1180.79</ele>
        <time>2021-08-27T09:59:16Z</time>
      </trkpt>
      <trkpt lat="44.54797" lon="5.59643">
        <ele>1179.86</ele>
        <time>2021-08-27T09:59:38Z</time>
      </trkpt>
      <trkpt lat="44.54807" lon="5.59653">
        <ele>1176.97</ele>
        <time>2021-08-27T09:59:59Z</time>
      </trkpt>
      <trkpt lat="44.54809" lon="5.5967">
        <ele>1175.27</ele>
        <time>2021-08-27T10:00:21Z</time>
      </trkpt>
      <trkpt lat="44.54811" lon="5.59699">
        <ele>1173.54</ele>
        <time>2021-08-27T10:00:47Z</time>
      </trkpt>
      <trkpt lat="44.54811" lon="5.59721">
        <ele>1171.35</ele>
        <time>2021-08-27T10:01:11Z</time>
      </trkpt>
      <trkpt lat="44.54814" lon="5.59751">
        <ele>1169.47</ele>
        <time>2021-08-27T10:01:36Z</time>
      </trkpt>
      <trkpt lat="44.54821" lon="5.5978">
        <ele>1167.03</ele>
        <time>2021-08-27T10:02:01Z</time>
      </trkpt>
      <trkpt lat="44.54832" lon="5.59799">
        <ele>1165.9</ele>
        <time>2021-08-27T10:02:23Z</time>
      </trkpt>
      <trkpt lat="44.54855" lon="5.59826">
        <ele>1164.94</ele>
        <time>2021-08-27T10:02:41Z</time>
      </trkpt>
      <trkpt lat="44.54889" lon="5.5982">
        <ele>1164.7</ele>
        <time>2021-08-27T10:03:00Z</time>
      </trkpt>
      <trkpt lat="44.54911" lon="5.59808">
        <ele>1164.78</ele>
        <time>2021-08-27T10:03:23Z</time>
      </trkpt>
      <trkpt lat="44.54916" lon="5.59807">
        <ele>1164.93</ele>
        <time>2021-08-27T10:03:30Z</time>
      </trkpt>
      <trkpt lat="44.54919" lon="5.59798">
        <ele>1164.89</ele>
        <time>2021-08-27T10:03:46Z</time>
      </trkpt>
      <trkpt lat="44.54928" lon="5.59803">
        <ele>1166.57</ele>
        <time>2021-08-27T10:04:05Z</time>
      </trkpt>
      <trkpt lat="44.5494" lon="5.59825">
        <ele>1166.05</ele>
        <time>2021-08-27T10:04:24Z</time>
      </trkpt>
      <trkpt lat="44.54943" lon="5.59837">
        <ele>1165.49</ele>
        <time>2021-08-27T10:04:38Z</time>
      </trkpt>
      <trkpt lat="44.54941" lon="5.5984">
        <ele>1165.66</ele>
        <time>2021-08-27T10:04:56Z</time>
      </trkpt>
      <trkpt lat="44.54941" lon="5.59841">
        <ele>1164.41</ele>
        <time>2021-08-27T10:05:11Z</time>
      </trkpt>
      <trkpt lat="44.54939" lon="5.59843">
        <ele>1164.86</ele>
        <time>2021-08-27T10:05:34Z</time>
      </trkpt>
      <trkpt lat="44.54939" lon="5.59846">
        <ele>1164.75</ele>
        <time>2021-08-27T10:06:01Z</time>
      </trkpt>
      <trkpt lat="44.5494" lon="5.5985">
        <ele>1164.57</ele>
        <time>2021-08-27T10:06:31Z</time>
      </trkpt>
    </trkseg>
  </trk>
</gpx>